<?xml version="1.0" encoding="UTF-8" standalone="no" ?>
<gpx xmlns="http://www.topografix.com/GPX/1/1" xmlns:xsi="http://www.w3.org/2001/XMLSchema-instance" xsi:schemaLocation="http://www.topografix.com/GPX/1/1 http://www.topografix.com/GPX/1/1/gpx.xsd" version="1.1" creator="VisuGPX - https://www.visugpx.com">
  <metadata>
    <name>20190213_Salvagnac</name>
    <desc><![CDATA[Rando à Salvagnac mercredi 13 février 2019]]></desc>
  </metadata>
  <trk>
    <name><![CDATA[Randonnée du 13/02/2019 à 10:03]]></name>
    <trkseg>
      <trkpt lat="43.91653" lon="1.69281">
        <ele>141</ele>
        <time>2019-02-13T10:03:27+01:00</time>
      </trkpt>
      <trkpt lat="43.91666" lon="1.69306">
        <ele>156</ele>
        <time>2019-02-13T10:04:27+01:00</time>
      </trkpt>
      <trkpt lat="43.91685" lon="1.69325">
        <ele>155</ele>
        <time>2019-02-13T10:04:53+01:00</time>
      </trkpt>
      <trkpt lat="43.91707" lon="1.69336">
        <ele>157</ele>
        <time>2019-02-13T10:05:15+01:00</time>
      </trkpt>
      <trkpt lat="43.91727" lon="1.69352">
        <ele>157</ele>
        <time>2019-02-13T10:05:33+01:00</time>
      </trkpt>
      <trkpt lat="43.91745" lon="1.69373">
        <ele>158</ele>
        <time>2019-02-13T10:05:52+01:00</time>
      </trkpt>
      <trkpt lat="43.91763" lon="1.69392">
        <ele>159</ele>
        <time>2019-02-13T10:06:12+01:00</time>
      </trkpt>
      <trkpt lat="43.91753" lon="1.6942">
        <ele>158</ele>
        <time>2019-02-13T10:06:37+01:00</time>
      </trkpt>
      <trkpt lat="43.91745" lon="1.6945">
        <ele>157</ele>
        <time>2019-02-13T10:07:01+01:00</time>
      </trkpt>
      <trkpt lat="43.91741" lon="1.69481">
        <ele>157</ele>
        <time>2019-02-13T10:07:26+01:00</time>
      </trkpt>
      <trkpt lat="43.91731" lon="1.69509">
        <ele>156</ele>
        <time>2019-02-13T10:07:52+01:00</time>
      </trkpt>
      <trkpt lat="43.91722" lon="1.69538">
        <ele>157</ele>
        <time>2019-02-13T10:08:15+01:00</time>
      </trkpt>
      <trkpt lat="43.91715" lon="1.69569">
        <ele>158</ele>
        <time>2019-02-13T10:08:36+01:00</time>
      </trkpt>
      <trkpt lat="43.9171" lon="1.69601">
        <ele>157</ele>
        <time>2019-02-13T10:08:56+01:00</time>
      </trkpt>
      <trkpt lat="43.91701" lon="1.69631">
        <ele>157</ele>
        <time>2019-02-13T10:09:14+01:00</time>
      </trkpt>
      <trkpt lat="43.91692" lon="1.6966">
        <ele>157</ele>
        <time>2019-02-13T10:09:30+01:00</time>
      </trkpt>
      <trkpt lat="43.91683" lon="1.69689">
        <ele>157</ele>
        <time>2019-02-13T10:09:47+01:00</time>
      </trkpt>
      <trkpt lat="43.91676" lon="1.69719">
        <ele>157</ele>
        <time>2019-02-13T10:10:06+01:00</time>
      </trkpt>
      <trkpt lat="43.91673" lon="1.6975">
        <ele>157</ele>
        <time>2019-02-13T10:10:23+01:00</time>
      </trkpt>
      <trkpt lat="43.91669" lon="1.69781">
        <ele>157</ele>
        <time>2019-02-13T10:10:44+01:00</time>
      </trkpt>
      <trkpt lat="43.91665" lon="1.69812">
        <ele>158</ele>
        <time>2019-02-13T10:11:01+01:00</time>
      </trkpt>
      <trkpt lat="43.91659" lon="1.69843">
        <ele>158</ele>
        <time>2019-02-13T10:11:21+01:00</time>
      </trkpt>
      <trkpt lat="43.91659" lon="1.69875">
        <ele>158</ele>
        <time>2019-02-13T10:11:40+01:00</time>
      </trkpt>
      <trkpt lat="43.91652" lon="1.69905">
        <ele>158</ele>
        <time>2019-02-13T10:11:59+01:00</time>
      </trkpt>
      <trkpt lat="43.91643" lon="1.69936">
        <ele>157</ele>
        <time>2019-02-13T10:12:18+01:00</time>
      </trkpt>
      <trkpt lat="43.91636" lon="1.69966">
        <ele>157</ele>
        <time>2019-02-13T10:12:35+01:00</time>
      </trkpt>
      <trkpt lat="43.9163" lon="1.69998">
        <ele>157</ele>
        <time>2019-02-13T10:12:53+01:00</time>
      </trkpt>
      <trkpt lat="43.91625" lon="1.7003">
        <ele>158</ele>
        <time>2019-02-13T10:13:32+01:00</time>
      </trkpt>
      <trkpt lat="43.9162" lon="1.70062">
        <ele>158</ele>
        <time>2019-02-13T10:13:53+01:00</time>
      </trkpt>
      <trkpt lat="43.91614" lon="1.70093">
        <ele>158</ele>
        <time>2019-02-13T10:14:13+01:00</time>
      </trkpt>
      <trkpt lat="43.91608" lon="1.70123">
        <ele>158</ele>
        <time>2019-02-13T10:14:30+01:00</time>
      </trkpt>
      <trkpt lat="43.91603" lon="1.70154">
        <ele>160</ele>
        <time>2019-02-13T10:14:47+01:00</time>
      </trkpt>
      <trkpt lat="43.91598" lon="1.70185">
        <ele>159</ele>
        <time>2019-02-13T10:15:04+01:00</time>
      </trkpt>
      <trkpt lat="43.91592" lon="1.70216">
        <ele>159</ele>
        <time>2019-02-13T10:15:24+01:00</time>
      </trkpt>
      <trkpt lat="43.91585" lon="1.70246">
        <ele>159</ele>
        <time>2019-02-13T10:15:45+01:00</time>
      </trkpt>
      <trkpt lat="43.91577" lon="1.70277">
        <ele>159</ele>
        <time>2019-02-13T10:16:03+01:00</time>
      </trkpt>
      <trkpt lat="43.9157" lon="1.70307">
        <ele>159</ele>
        <time>2019-02-13T10:16:20+01:00</time>
      </trkpt>
      <trkpt lat="43.91562" lon="1.70337">
        <ele>159</ele>
        <time>2019-02-13T10:16:38+01:00</time>
      </trkpt>
      <trkpt lat="43.91552" lon="1.70366">
        <ele>160</ele>
        <time>2019-02-13T10:16:56+01:00</time>
      </trkpt>
      <trkpt lat="43.91545" lon="1.70397">
        <ele>160</ele>
        <time>2019-02-13T10:17:17+01:00</time>
      </trkpt>
      <trkpt lat="43.91528" lon="1.7042">
        <ele>160</ele>
        <time>2019-02-13T10:17:37+01:00</time>
      </trkpt>
      <trkpt lat="43.91514" lon="1.70445">
        <ele>159</ele>
        <time>2019-02-13T10:17:57+01:00</time>
      </trkpt>
      <trkpt lat="43.9151" lon="1.70477">
        <ele>159</ele>
        <time>2019-02-13T10:18:17+01:00</time>
      </trkpt>
      <trkpt lat="43.9151" lon="1.7051">
        <ele>159</ele>
        <time>2019-02-13T10:18:35+01:00</time>
      </trkpt>
      <trkpt lat="43.91509" lon="1.70541">
        <ele>159</ele>
        <time>2019-02-13T10:18:56+01:00</time>
      </trkpt>
      <trkpt lat="43.91506" lon="1.70573">
        <ele>159</ele>
        <time>2019-02-13T10:19:15+01:00</time>
      </trkpt>
      <trkpt lat="43.91502" lon="1.70605">
        <ele>159</ele>
        <time>2019-02-13T10:19:34+01:00</time>
      </trkpt>
      <trkpt lat="43.91497" lon="1.70637">
        <ele>159</ele>
        <time>2019-02-13T10:19:53+01:00</time>
      </trkpt>
      <trkpt lat="43.91492" lon="1.70668">
        <ele>159</ele>
        <time>2019-02-13T10:20:14+01:00</time>
      </trkpt>
      <trkpt lat="43.91487" lon="1.70699">
        <ele>159</ele>
        <time>2019-02-13T10:20:33+01:00</time>
      </trkpt>
      <trkpt lat="43.91486" lon="1.70731">
        <ele>160</ele>
        <time>2019-02-13T10:20:51+01:00</time>
      </trkpt>
      <trkpt lat="43.9149" lon="1.70762">
        <ele>160</ele>
        <time>2019-02-13T10:21:11+01:00</time>
      </trkpt>
      <trkpt lat="43.91498" lon="1.70792">
        <ele>160</ele>
        <time>2019-02-13T10:21:31+01:00</time>
      </trkpt>
      <trkpt lat="43.91499" lon="1.70824">
        <ele>161</ele>
        <time>2019-02-13T10:21:49+01:00</time>
      </trkpt>
      <trkpt lat="43.91481" lon="1.70842">
        <ele>160</ele>
        <time>2019-02-13T10:24:45+01:00</time>
      </trkpt>
      <trkpt lat="43.91459" lon="1.70854">
        <ele>160</ele>
        <time>2019-02-13T10:25:05+01:00</time>
      </trkpt>
      <trkpt lat="43.91437" lon="1.70866">
        <ele>159</ele>
        <time>2019-02-13T10:25:23+01:00</time>
      </trkpt>
      <trkpt lat="43.91416" lon="1.70877">
        <ele>159</ele>
        <time>2019-02-13T10:25:40+01:00</time>
      </trkpt>
      <trkpt lat="43.91395" lon="1.70888">
        <ele>159</ele>
        <time>2019-02-13T10:25:57+01:00</time>
      </trkpt>
      <trkpt lat="43.91372" lon="1.70899">
        <ele>159</ele>
        <time>2019-02-13T10:26:15+01:00</time>
      </trkpt>
      <trkpt lat="43.91351" lon="1.70912">
        <ele>159</ele>
        <time>2019-02-13T10:26:34+01:00</time>
      </trkpt>
      <trkpt lat="43.91371" lon="1.70927">
        <ele>159</ele>
        <time>2019-02-13T10:26:54+01:00</time>
      </trkpt>
      <trkpt lat="43.91394" lon="1.70935">
        <ele>159</ele>
        <time>2019-02-13T10:27:13+01:00</time>
      </trkpt>
      <trkpt lat="43.91416" lon="1.70943">
        <ele>159</ele>
        <time>2019-02-13T10:27:33+01:00</time>
      </trkpt>
      <trkpt lat="43.91439" lon="1.70954">
        <ele>159</ele>
        <time>2019-02-13T10:27:53+01:00</time>
      </trkpt>
      <trkpt lat="43.91438" lon="1.70986">
        <ele>159</ele>
        <time>2019-02-13T10:28:10+01:00</time>
      </trkpt>
      <trkpt lat="43.91433" lon="1.71017">
        <ele>159</ele>
        <time>2019-02-13T10:28:32+01:00</time>
      </trkpt>
      <trkpt lat="43.91433" lon="1.71048">
        <ele>159</ele>
        <time>2019-02-13T10:29:06+01:00</time>
      </trkpt>
      <trkpt lat="43.91433" lon="1.71079">
        <ele>159</ele>
        <time>2019-02-13T10:29:36+01:00</time>
      </trkpt>
      <trkpt lat="43.91434" lon="1.71111">
        <ele>159</ele>
        <time>2019-02-13T10:30:04+01:00</time>
      </trkpt>
      <trkpt lat="43.91439" lon="1.71142">
        <ele>159</ele>
        <time>2019-02-13T10:33:42+01:00</time>
      </trkpt>
      <trkpt lat="43.91438" lon="1.71173">
        <ele>159</ele>
        <time>2019-02-13T10:34:04+01:00</time>
      </trkpt>
      <trkpt lat="43.91438" lon="1.71205">
        <ele>159</ele>
        <time>2019-02-13T10:34:27+01:00</time>
      </trkpt>
      <trkpt lat="43.91439" lon="1.71237">
        <ele>159</ele>
        <time>2019-02-13T10:34:48+01:00</time>
      </trkpt>
      <trkpt lat="43.91438" lon="1.71269">
        <ele>159</ele>
        <time>2019-02-13T10:35:09+01:00</time>
      </trkpt>
      <trkpt lat="43.9144" lon="1.713">
        <ele>159</ele>
        <time>2019-02-13T10:35:30+01:00</time>
      </trkpt>
      <trkpt lat="43.91444" lon="1.71331">
        <ele>159</ele>
        <time>2019-02-13T10:35:55+01:00</time>
      </trkpt>
      <trkpt lat="43.91449" lon="1.71362">
        <ele>159</ele>
        <time>2019-02-13T10:36:19+01:00</time>
      </trkpt>
      <trkpt lat="43.91455" lon="1.71393">
        <ele>160</ele>
        <time>2019-02-13T10:36:43+01:00</time>
      </trkpt>
      <trkpt lat="43.9146" lon="1.71425">
        <ele>160</ele>
        <time>2019-02-13T10:37:03+01:00</time>
      </trkpt>
      <trkpt lat="43.91464" lon="1.71457">
        <ele>160</ele>
        <time>2019-02-13T10:37:23+01:00</time>
      </trkpt>
      <trkpt lat="43.91465" lon="1.71489">
        <ele>160</ele>
        <time>2019-02-13T10:37:44+01:00</time>
      </trkpt>
      <trkpt lat="43.91464" lon="1.7152">
        <ele>160</ele>
        <time>2019-02-13T10:38:03+01:00</time>
      </trkpt>
      <trkpt lat="43.91464" lon="1.71552">
        <ele>161</ele>
        <time>2019-02-13T10:38:22+01:00</time>
      </trkpt>
      <trkpt lat="43.91465" lon="1.71584">
        <ele>160</ele>
        <time>2019-02-13T10:38:42+01:00</time>
      </trkpt>
      <trkpt lat="43.91468" lon="1.71615">
        <ele>161</ele>
        <time>2019-02-13T10:39:02+01:00</time>
      </trkpt>
      <trkpt lat="43.91472" lon="1.71646">
        <ele>162</ele>
        <time>2019-02-13T10:39:24+01:00</time>
      </trkpt>
      <trkpt lat="43.91469" lon="1.71677">
        <ele>161</ele>
        <time>2019-02-13T10:39:44+01:00</time>
      </trkpt>
      <trkpt lat="43.91462" lon="1.71707">
        <ele>161</ele>
        <time>2019-02-13T10:40:04+01:00</time>
      </trkpt>
      <trkpt lat="43.91466" lon="1.71738">
        <ele>163</ele>
        <time>2019-02-13T10:42:13+01:00</time>
      </trkpt>
      <trkpt lat="43.91472" lon="1.71768">
        <ele>164</ele>
        <time>2019-02-13T10:44:16+01:00</time>
      </trkpt>
      <trkpt lat="43.91464" lon="1.71797">
        <ele>163</ele>
        <time>2019-02-13T10:44:34+01:00</time>
      </trkpt>
      <trkpt lat="43.91456" lon="1.71828">
        <ele>163</ele>
        <time>2019-02-13T10:44:52+01:00</time>
      </trkpt>
      <trkpt lat="43.91447" lon="1.71856">
        <ele>163</ele>
        <time>2019-02-13T10:45:10+01:00</time>
      </trkpt>
      <trkpt lat="43.91436" lon="1.71885">
        <ele>163</ele>
        <time>2019-02-13T10:45:29+01:00</time>
      </trkpt>
      <trkpt lat="43.91428" lon="1.71916">
        <ele>164</ele>
        <time>2019-02-13T10:45:47+01:00</time>
      </trkpt>
      <trkpt lat="43.9142" lon="1.71945">
        <ele>165</ele>
        <time>2019-02-13T10:46:05+01:00</time>
      </trkpt>
      <trkpt lat="43.91412" lon="1.71975">
        <ele>166</ele>
        <time>2019-02-13T10:46:24+01:00</time>
      </trkpt>
      <trkpt lat="43.91405" lon="1.72004">
        <ele>166</ele>
        <time>2019-02-13T10:46:44+01:00</time>
      </trkpt>
      <trkpt lat="43.91394" lon="1.72032">
        <ele>165</ele>
        <time>2019-02-13T10:47:02+01:00</time>
      </trkpt>
      <trkpt lat="43.91384" lon="1.7206">
        <ele>164</ele>
        <time>2019-02-13T10:47:20+01:00</time>
      </trkpt>
      <trkpt lat="43.91372" lon="1.72087">
        <ele>165</ele>
        <time>2019-02-13T10:47:37+01:00</time>
      </trkpt>
      <trkpt lat="43.91362" lon="1.72116">
        <ele>164</ele>
        <time>2019-02-13T10:47:55+01:00</time>
      </trkpt>
      <trkpt lat="43.9135" lon="1.72144">
        <ele>164</ele>
        <time>2019-02-13T10:48:12+01:00</time>
      </trkpt>
      <trkpt lat="43.91339" lon="1.72172">
        <ele>165</ele>
        <time>2019-02-13T10:48:30+01:00</time>
      </trkpt>
      <trkpt lat="43.91329" lon="1.722">
        <ele>164</ele>
        <time>2019-02-13T10:48:47+01:00</time>
      </trkpt>
      <trkpt lat="43.91319" lon="1.72229">
        <ele>165</ele>
        <time>2019-02-13T10:49:06+01:00</time>
      </trkpt>
      <trkpt lat="43.91309" lon="1.72257">
        <ele>165</ele>
        <time>2019-02-13T10:49:25+01:00</time>
      </trkpt>
      <trkpt lat="43.91308" lon="1.72289">
        <ele>165</ele>
        <time>2019-02-13T10:49:44+01:00</time>
      </trkpt>
      <trkpt lat="43.91306" lon="1.7232">
        <ele>165</ele>
        <time>2019-02-13T10:50:02+01:00</time>
      </trkpt>
      <trkpt lat="43.91302" lon="1.72351">
        <ele>165</ele>
        <time>2019-02-13T10:50:23+01:00</time>
      </trkpt>
      <trkpt lat="43.91289" lon="1.72377">
        <ele>165</ele>
        <time>2019-02-13T10:50:48+01:00</time>
      </trkpt>
      <trkpt lat="43.91278" lon="1.72405">
        <ele>165</ele>
        <time>2019-02-13T10:51:09+01:00</time>
      </trkpt>
      <trkpt lat="43.91272" lon="1.72436">
        <ele>166</ele>
        <time>2019-02-13T10:51:27+01:00</time>
      </trkpt>
      <trkpt lat="43.91264" lon="1.72467">
        <ele>166</ele>
        <time>2019-02-13T10:51:46+01:00</time>
      </trkpt>
      <trkpt lat="43.91256" lon="1.72497">
        <ele>166</ele>
        <time>2019-02-13T10:52:06+01:00</time>
      </trkpt>
      <trkpt lat="43.9125" lon="1.72528">
        <ele>166</ele>
        <time>2019-02-13T10:52:28+01:00</time>
      </trkpt>
      <trkpt lat="43.91247" lon="1.72561">
        <ele>166</ele>
        <time>2019-02-13T10:52:51+01:00</time>
      </trkpt>
      <trkpt lat="43.91243" lon="1.72593">
        <ele>167</ele>
        <time>2019-02-13T10:53:13+01:00</time>
      </trkpt>
      <trkpt lat="43.91235" lon="1.72622">
        <ele>167</ele>
        <time>2019-02-13T10:53:32+01:00</time>
      </trkpt>
      <trkpt lat="43.91226" lon="1.72651">
        <ele>167</ele>
        <time>2019-02-13T10:53:53+01:00</time>
      </trkpt>
      <trkpt lat="43.91218" lon="1.72681">
        <ele>166</ele>
        <time>2019-02-13T10:54:13+01:00</time>
      </trkpt>
      <trkpt lat="43.91206" lon="1.72709">
        <ele>167</ele>
        <time>2019-02-13T10:54:34+01:00</time>
      </trkpt>
      <trkpt lat="43.91191" lon="1.72734">
        <ele>167</ele>
        <time>2019-02-13T10:54:52+01:00</time>
      </trkpt>
      <trkpt lat="43.91177" lon="1.7276">
        <ele>167</ele>
        <time>2019-02-13T10:55:12+01:00</time>
      </trkpt>
      <trkpt lat="43.91165" lon="1.72788">
        <ele>167</ele>
        <time>2019-02-13T10:55:33+01:00</time>
      </trkpt>
      <trkpt lat="43.91153" lon="1.72815">
        <ele>167</ele>
        <time>2019-02-13T10:55:51+01:00</time>
      </trkpt>
      <trkpt lat="43.91142" lon="1.72842">
        <ele>167</ele>
        <time>2019-02-13T10:56:10+01:00</time>
      </trkpt>
      <trkpt lat="43.91137" lon="1.72874">
        <ele>167</ele>
        <time>2019-02-13T10:56:30+01:00</time>
      </trkpt>
      <trkpt lat="43.9113" lon="1.72905">
        <ele>167</ele>
        <time>2019-02-13T10:56:51+01:00</time>
      </trkpt>
      <trkpt lat="43.91123" lon="1.72936">
        <ele>167</ele>
        <time>2019-02-13T10:57:12+01:00</time>
      </trkpt>
      <trkpt lat="43.91118" lon="1.72968">
        <ele>167</ele>
        <time>2019-02-13T10:57:32+01:00</time>
      </trkpt>
      <trkpt lat="43.91116" lon="1.72999">
        <ele>167</ele>
        <time>2019-02-13T10:57:52+01:00</time>
      </trkpt>
      <trkpt lat="43.91112" lon="1.7303">
        <ele>167</ele>
        <time>2019-02-13T10:58:13+01:00</time>
      </trkpt>
      <trkpt lat="43.91106" lon="1.73061">
        <ele>167</ele>
        <time>2019-02-13T10:58:34+01:00</time>
      </trkpt>
      <trkpt lat="43.91101" lon="1.73092">
        <ele>168</ele>
        <time>2019-02-13T10:58:54+01:00</time>
      </trkpt>
      <trkpt lat="43.91096" lon="1.73123">
        <ele>168</ele>
        <time>2019-02-13T10:59:15+01:00</time>
      </trkpt>
      <trkpt lat="43.91092" lon="1.73154">
        <ele>169</ele>
        <time>2019-02-13T10:59:36+01:00</time>
      </trkpt>
      <trkpt lat="43.91088" lon="1.73184">
        <ele>169</ele>
        <time>2019-02-13T10:59:57+01:00</time>
      </trkpt>
      <trkpt lat="43.91068" lon="1.73203">
        <ele>169</ele>
        <time>2019-02-13T11:00:19+01:00</time>
      </trkpt>
      <trkpt lat="43.91049" lon="1.7322">
        <ele>168</ele>
        <time>2019-02-13T11:00:39+01:00</time>
      </trkpt>
      <trkpt lat="43.91035" lon="1.73246">
        <ele>169</ele>
        <time>2019-02-13T11:01:02+01:00</time>
      </trkpt>
      <trkpt lat="43.91028" lon="1.73276">
        <ele>169</ele>
        <time>2019-02-13T11:01:23+01:00</time>
      </trkpt>
      <trkpt lat="43.9102" lon="1.73307">
        <ele>169</ele>
        <time>2019-02-13T11:01:43+01:00</time>
      </trkpt>
      <trkpt lat="43.91014" lon="1.73338">
        <ele>169</ele>
        <time>2019-02-13T11:02:03+01:00</time>
      </trkpt>
      <trkpt lat="43.91006" lon="1.73368">
        <ele>169</ele>
        <time>2019-02-13T11:02:23+01:00</time>
      </trkpt>
      <trkpt lat="43.91001" lon="1.734">
        <ele>169</ele>
        <time>2019-02-13T11:02:43+01:00</time>
      </trkpt>
      <trkpt lat="43.90994" lon="1.73431">
        <ele>169</ele>
        <time>2019-02-13T11:03:03+01:00</time>
      </trkpt>
      <trkpt lat="43.90988" lon="1.73462">
        <ele>169</ele>
        <time>2019-02-13T11:03:23+01:00</time>
      </trkpt>
      <trkpt lat="43.90984" lon="1.73492">
        <ele>169</ele>
        <time>2019-02-13T11:03:42+01:00</time>
      </trkpt>
      <trkpt lat="43.90987" lon="1.73525">
        <ele>169</ele>
        <time>2019-02-13T11:04:01+01:00</time>
      </trkpt>
      <trkpt lat="43.90992" lon="1.73555">
        <ele>170</ele>
        <time>2019-02-13T11:04:21+01:00</time>
      </trkpt>
      <trkpt lat="43.90998" lon="1.73586">
        <ele>169</ele>
        <time>2019-02-13T11:11:37+01:00</time>
      </trkpt>
      <trkpt lat="43.91002" lon="1.73619">
        <ele>166</ele>
        <time>2019-02-13T11:12:21+01:00</time>
      </trkpt>
      <trkpt lat="43.91006" lon="1.7365">
        <ele>166</ele>
        <time>2019-02-13T11:12:44+01:00</time>
      </trkpt>
      <trkpt lat="43.91011" lon="1.73682">
        <ele>166</ele>
        <time>2019-02-13T11:13:07+01:00</time>
      </trkpt>
      <trkpt lat="43.91016" lon="1.73712">
        <ele>167</ele>
        <time>2019-02-13T11:13:28+01:00</time>
      </trkpt>
      <trkpt lat="43.91023" lon="1.73743">
        <ele>166</ele>
        <time>2019-02-13T11:13:50+01:00</time>
      </trkpt>
      <trkpt lat="43.91027" lon="1.73774">
        <ele>167</ele>
        <time>2019-02-13T11:14:17+01:00</time>
      </trkpt>
      <trkpt lat="43.9103" lon="1.73805">
        <ele>166</ele>
        <time>2019-02-13T11:14:39+01:00</time>
      </trkpt>
      <trkpt lat="43.91037" lon="1.73835">
        <ele>167</ele>
        <time>2019-02-13T11:15:01+01:00</time>
      </trkpt>
      <trkpt lat="43.91047" lon="1.73863">
        <ele>167</ele>
        <time>2019-02-13T11:15:23+01:00</time>
      </trkpt>
      <trkpt lat="43.91054" lon="1.73894">
        <ele>168</ele>
        <time>2019-02-13T11:15:46+01:00</time>
      </trkpt>
      <trkpt lat="43.91057" lon="1.73925">
        <ele>168</ele>
        <time>2019-02-13T11:16:04+01:00</time>
      </trkpt>
      <trkpt lat="43.9106" lon="1.73956">
        <ele>169</ele>
        <time>2019-02-13T11:16:24+01:00</time>
      </trkpt>
      <trkpt lat="43.91065" lon="1.73987">
        <ele>170</ele>
        <time>2019-02-13T11:16:48+01:00</time>
      </trkpt>
      <trkpt lat="43.91071" lon="1.74019">
        <ele>170</ele>
        <time>2019-02-13T11:17:09+01:00</time>
      </trkpt>
      <trkpt lat="43.91074" lon="1.7405">
        <ele>169</ele>
        <time>2019-02-13T11:17:28+01:00</time>
      </trkpt>
      <trkpt lat="43.91073" lon="1.74082">
        <ele>169</ele>
        <time>2019-02-13T11:17:47+01:00</time>
      </trkpt>
      <trkpt lat="43.91072" lon="1.74113">
        <ele>170</ele>
        <time>2019-02-13T11:18:07+01:00</time>
      </trkpt>
      <trkpt lat="43.91068" lon="1.74145">
        <ele>170</ele>
        <time>2019-02-13T11:18:28+01:00</time>
      </trkpt>
      <trkpt lat="43.91065" lon="1.74176">
        <ele>170</ele>
        <time>2019-02-13T11:18:50+01:00</time>
      </trkpt>
      <trkpt lat="43.91063" lon="1.74208">
        <ele>170</ele>
        <time>2019-02-13T11:19:11+01:00</time>
      </trkpt>
      <trkpt lat="43.91062" lon="1.7424">
        <ele>170</ele>
        <time>2019-02-13T11:19:29+01:00</time>
      </trkpt>
      <trkpt lat="43.91062" lon="1.74271">
        <ele>170</ele>
        <time>2019-02-13T11:19:48+01:00</time>
      </trkpt>
      <trkpt lat="43.91066" lon="1.74302">
        <ele>170</ele>
        <time>2019-02-13T11:20:09+01:00</time>
      </trkpt>
      <trkpt lat="43.91071" lon="1.74334">
        <ele>171</ele>
        <time>2019-02-13T11:20:32+01:00</time>
      </trkpt>
      <trkpt lat="43.91075" lon="1.74366">
        <ele>171</ele>
        <time>2019-02-13T11:20:52+01:00</time>
      </trkpt>
      <trkpt lat="43.91075" lon="1.74397">
        <ele>170</ele>
        <time>2019-02-13T11:21:12+01:00</time>
      </trkpt>
      <trkpt lat="43.91076" lon="1.74429">
        <ele>170</ele>
        <time>2019-02-13T11:21:32+01:00</time>
      </trkpt>
      <trkpt lat="43.91074" lon="1.74462">
        <ele>170</ele>
        <time>2019-02-13T11:21:51+01:00</time>
      </trkpt>
      <trkpt lat="43.91074" lon="1.74494">
        <ele>170</ele>
        <time>2019-02-13T11:22:13+01:00</time>
      </trkpt>
      <trkpt lat="43.91076" lon="1.74526">
        <ele>170</ele>
        <time>2019-02-13T11:22:34+01:00</time>
      </trkpt>
      <trkpt lat="43.9108" lon="1.74557">
        <ele>170</ele>
        <time>2019-02-13T11:22:58+01:00</time>
      </trkpt>
      <trkpt lat="43.91085" lon="1.74588">
        <ele>170</ele>
        <time>2019-02-13T11:23:20+01:00</time>
      </trkpt>
      <trkpt lat="43.9109" lon="1.74619">
        <ele>170</ele>
        <time>2019-02-13T11:23:42+01:00</time>
      </trkpt>
      <trkpt lat="43.91094" lon="1.74651">
        <ele>170</ele>
        <time>2019-02-13T11:24:03+01:00</time>
      </trkpt>
      <trkpt lat="43.91097" lon="1.74682">
        <ele>170</ele>
        <time>2019-02-13T11:24:25+01:00</time>
      </trkpt>
      <trkpt lat="43.91098" lon="1.74713">
        <ele>171</ele>
        <time>2019-02-13T11:24:46+01:00</time>
      </trkpt>
      <trkpt lat="43.91101" lon="1.74746">
        <ele>171</ele>
        <time>2019-02-13T11:25:06+01:00</time>
      </trkpt>
      <trkpt lat="43.91105" lon="1.74778">
        <ele>170</ele>
        <time>2019-02-13T11:25:28+01:00</time>
      </trkpt>
      <trkpt lat="43.91105" lon="1.74809">
        <ele>171</ele>
        <time>2019-02-13T11:25:48+01:00</time>
      </trkpt>
      <trkpt lat="43.91104" lon="1.74841">
        <ele>171</ele>
        <time>2019-02-13T11:26:07+01:00</time>
      </trkpt>
      <trkpt lat="43.91103" lon="1.74872">
        <ele>171</ele>
        <time>2019-02-13T11:26:32+01:00</time>
      </trkpt>
      <trkpt lat="43.91103" lon="1.74904">
        <ele>171</ele>
        <time>2019-02-13T11:26:54+01:00</time>
      </trkpt>
      <trkpt lat="43.91099" lon="1.74936">
        <ele>172</ele>
        <time>2019-02-13T11:27:17+01:00</time>
      </trkpt>
      <trkpt lat="43.91079" lon="1.74949">
        <ele>173</ele>
        <time>2019-02-13T11:27:53+01:00</time>
      </trkpt>
      <trkpt lat="43.9108" lon="1.7498">
        <ele>172</ele>
        <time>2019-02-13T11:29:03+01:00</time>
      </trkpt>
      <trkpt lat="43.91082" lon="1.75012">
        <ele>172</ele>
        <time>2019-02-13T11:29:54+01:00</time>
      </trkpt>
      <trkpt lat="43.9108" lon="1.75043">
        <ele>172</ele>
        <time>2019-02-13T11:30:12+01:00</time>
      </trkpt>
      <trkpt lat="43.91077" lon="1.75075">
        <ele>172</ele>
        <time>2019-02-13T11:30:32+01:00</time>
      </trkpt>
      <trkpt lat="43.91081" lon="1.75106">
        <ele>172</ele>
        <time>2019-02-13T11:30:53+01:00</time>
      </trkpt>
      <trkpt lat="43.91088" lon="1.75136">
        <ele>172</ele>
        <time>2019-02-13T11:31:14+01:00</time>
      </trkpt>
      <trkpt lat="43.91094" lon="1.75167">
        <ele>173</ele>
        <time>2019-02-13T11:31:36+01:00</time>
      </trkpt>
      <trkpt lat="43.911" lon="1.75197">
        <ele>173</ele>
        <time>2019-02-13T11:31:57+01:00</time>
      </trkpt>
      <trkpt lat="43.91107" lon="1.75227">
        <ele>174</ele>
        <time>2019-02-13T11:32:18+01:00</time>
      </trkpt>
      <trkpt lat="43.91115" lon="1.75258">
        <ele>175</ele>
        <time>2019-02-13T11:32:40+01:00</time>
      </trkpt>
      <trkpt lat="43.91123" lon="1.75287">
        <ele>175</ele>
        <time>2019-02-13T11:33:02+01:00</time>
      </trkpt>
      <trkpt lat="43.91129" lon="1.75317">
        <ele>177</ele>
        <time>2019-02-13T11:33:28+01:00</time>
      </trkpt>
      <trkpt lat="43.91141" lon="1.75344">
        <ele>178</ele>
        <time>2019-02-13T11:33:49+01:00</time>
      </trkpt>
      <trkpt lat="43.91152" lon="1.75373">
        <ele>178</ele>
        <time>2019-02-13T11:34:14+01:00</time>
      </trkpt>
      <trkpt lat="43.91157" lon="1.75404">
        <ele>177</ele>
        <time>2019-02-13T11:34:34+01:00</time>
      </trkpt>
      <trkpt lat="43.91161" lon="1.75435">
        <ele>178</ele>
        <time>2019-02-13T11:34:55+01:00</time>
      </trkpt>
      <trkpt lat="43.91165" lon="1.75467">
        <ele>179</ele>
        <time>2019-02-13T11:35:14+01:00</time>
      </trkpt>
      <trkpt lat="43.91171" lon="1.75498">
        <ele>179</ele>
        <time>2019-02-13T11:35:36+01:00</time>
      </trkpt>
      <trkpt lat="43.91175" lon="1.7553">
        <ele>180</ele>
        <time>2019-02-13T11:35:55+01:00</time>
      </trkpt>
      <trkpt lat="43.91177" lon="1.75561">
        <ele>180</ele>
        <time>2019-02-13T11:36:15+01:00</time>
      </trkpt>
      <trkpt lat="43.91176" lon="1.75592">
        <ele>181</ele>
        <time>2019-02-13T11:36:35+01:00</time>
      </trkpt>
      <trkpt lat="43.91177" lon="1.75624">
        <ele>180</ele>
        <time>2019-02-13T11:36:54+01:00</time>
      </trkpt>
      <trkpt lat="43.91174" lon="1.75657">
        <ele>180</ele>
        <time>2019-02-13T11:37:12+01:00</time>
      </trkpt>
      <trkpt lat="43.91174" lon="1.75688">
        <ele>179</ele>
        <time>2019-02-13T11:37:30+01:00</time>
      </trkpt>
      <trkpt lat="43.91196" lon="1.75696">
        <ele>180</ele>
        <time>2019-02-13T11:37:49+01:00</time>
      </trkpt>
      <trkpt lat="43.91218" lon="1.75688">
        <ele>182</ele>
        <time>2019-02-13T11:38:08+01:00</time>
      </trkpt>
      <trkpt lat="43.91241" lon="1.75682">
        <ele>186</ele>
        <time>2019-02-13T11:38:31+01:00</time>
      </trkpt>
      <trkpt lat="43.91264" lon="1.75678">
        <ele>190</ele>
        <time>2019-02-13T11:38:54+01:00</time>
      </trkpt>
      <trkpt lat="43.91287" lon="1.75676">
        <ele>193</ele>
        <time>2019-02-13T11:39:21+01:00</time>
      </trkpt>
      <trkpt lat="43.9131" lon="1.75677">
        <ele>196</ele>
        <time>2019-02-13T11:39:46+01:00</time>
      </trkpt>
      <trkpt lat="43.91333" lon="1.75678">
        <ele>199</ele>
        <time>2019-02-13T11:40:11+01:00</time>
      </trkpt>
      <trkpt lat="43.91353" lon="1.75693">
        <ele>200</ele>
        <time>2019-02-13T11:40:32+01:00</time>
      </trkpt>
      <trkpt lat="43.91376" lon="1.75701">
        <ele>201</ele>
        <time>2019-02-13T11:41:01+01:00</time>
      </trkpt>
      <trkpt lat="43.91397" lon="1.75694">
        <ele>202</ele>
        <time>2019-02-13T11:42:16+01:00</time>
      </trkpt>
      <trkpt lat="43.9142" lon="1.75697">
        <ele>202</ele>
        <time>2019-02-13T11:42:45+01:00</time>
      </trkpt>
      <trkpt lat="43.91442" lon="1.75707">
        <ele>202</ele>
        <time>2019-02-13T11:46:58+01:00</time>
      </trkpt>
      <trkpt lat="43.91465" lon="1.75714">
        <ele>201</ele>
        <time>2019-02-13T11:47:21+01:00</time>
      </trkpt>
      <trkpt lat="43.91485" lon="1.75728">
        <ele>200</ele>
        <time>2019-02-13T11:47:43+01:00</time>
      </trkpt>
      <trkpt lat="43.91508" lon="1.75739">
        <ele>199</ele>
        <time>2019-02-13T11:48:03+01:00</time>
      </trkpt>
      <trkpt lat="43.91528" lon="1.75756">
        <ele>198</ele>
        <time>2019-02-13T11:48:23+01:00</time>
      </trkpt>
      <trkpt lat="43.91549" lon="1.75768">
        <ele>197</ele>
        <time>2019-02-13T11:48:43+01:00</time>
      </trkpt>
      <trkpt lat="43.91572" lon="1.75776">
        <ele>197</ele>
        <time>2019-02-13T11:49:04+01:00</time>
      </trkpt>
      <trkpt lat="43.91593" lon="1.75789">
        <ele>197</ele>
        <time>2019-02-13T11:49:27+01:00</time>
      </trkpt>
      <trkpt lat="43.91615" lon="1.75798">
        <ele>197</ele>
        <time>2019-02-13T11:49:48+01:00</time>
      </trkpt>
      <trkpt lat="43.91637" lon="1.75805">
        <ele>196</ele>
        <time>2019-02-13T11:50:08+01:00</time>
      </trkpt>
      <trkpt lat="43.91659" lon="1.75812">
        <ele>196</ele>
        <time>2019-02-13T11:50:26+01:00</time>
      </trkpt>
      <trkpt lat="43.91682" lon="1.7582">
        <ele>196</ele>
        <time>2019-02-13T11:50:47+01:00</time>
      </trkpt>
      <trkpt lat="43.91703" lon="1.75835">
        <ele>196</ele>
        <time>2019-02-13T11:51:07+01:00</time>
      </trkpt>
      <trkpt lat="43.91725" lon="1.75844">
        <ele>196</ele>
        <time>2019-02-13T11:51:29+01:00</time>
      </trkpt>
      <trkpt lat="43.91748" lon="1.75852">
        <ele>196</ele>
        <time>2019-02-13T11:51:48+01:00</time>
      </trkpt>
      <trkpt lat="43.91771" lon="1.75854">
        <ele>197</ele>
        <time>2019-02-13T11:52:08+01:00</time>
      </trkpt>
      <trkpt lat="43.91795" lon="1.75857">
        <ele>196</ele>
        <time>2019-02-13T11:52:27+01:00</time>
      </trkpt>
      <trkpt lat="43.91818" lon="1.7586">
        <ele>196</ele>
        <time>2019-02-13T11:52:48+01:00</time>
      </trkpt>
      <trkpt lat="43.91841" lon="1.7586">
        <ele>196</ele>
        <time>2019-02-13T11:53:07+01:00</time>
      </trkpt>
      <trkpt lat="43.91864" lon="1.75854">
        <ele>196</ele>
        <time>2019-02-13T11:53:26+01:00</time>
      </trkpt>
      <trkpt lat="43.91886" lon="1.7585">
        <ele>197</ele>
        <time>2019-02-13T11:53:46+01:00</time>
      </trkpt>
      <trkpt lat="43.91909" lon="1.75844">
        <ele>198</ele>
        <time>2019-02-13T11:54:05+01:00</time>
      </trkpt>
      <trkpt lat="43.91932" lon="1.75842">
        <ele>199</ele>
        <time>2019-02-13T11:54:26+01:00</time>
      </trkpt>
      <trkpt lat="43.91955" lon="1.75844">
        <ele>199</ele>
        <time>2019-02-13T11:54:47+01:00</time>
      </trkpt>
      <trkpt lat="43.91978" lon="1.75842">
        <ele>199</ele>
        <time>2019-02-13T11:55:09+01:00</time>
      </trkpt>
      <trkpt lat="43.92" lon="1.75841">
        <ele>200</ele>
        <time>2019-02-13T11:55:33+01:00</time>
      </trkpt>
      <trkpt lat="43.92024" lon="1.75841">
        <ele>200</ele>
        <time>2019-02-13T11:55:51+01:00</time>
      </trkpt>
      <trkpt lat="43.92047" lon="1.75846">
        <ele>200</ele>
        <time>2019-02-13T11:56:14+01:00</time>
      </trkpt>
      <trkpt lat="43.9207" lon="1.75849">
        <ele>201</ele>
        <time>2019-02-13T11:56:35+01:00</time>
      </trkpt>
      <trkpt lat="43.92093" lon="1.75847">
        <ele>201</ele>
        <time>2019-02-13T11:56:56+01:00</time>
      </trkpt>
      <trkpt lat="43.92116" lon="1.75852">
        <ele>202</ele>
        <time>2019-02-13T11:57:14+01:00</time>
      </trkpt>
      <trkpt lat="43.92139" lon="1.75857">
        <ele>202</ele>
        <time>2019-02-13T11:58:45+01:00</time>
      </trkpt>
      <trkpt lat="43.92162" lon="1.75855">
        <ele>203</ele>
        <time>2019-02-13T11:59:10+01:00</time>
      </trkpt>
      <trkpt lat="43.92185" lon="1.75854">
        <ele>204</ele>
        <time>2019-02-13T12:00:19+01:00</time>
      </trkpt>
      <trkpt lat="43.92208" lon="1.75853">
        <ele>205</ele>
        <time>2019-02-13T12:00:46+01:00</time>
      </trkpt>
      <trkpt lat="43.9223" lon="1.75847">
        <ele>205</ele>
        <time>2019-02-13T12:01:10+01:00</time>
      </trkpt>
      <trkpt lat="43.92253" lon="1.75841">
        <ele>206</ele>
        <time>2019-02-13T12:01:43+01:00</time>
      </trkpt>
      <trkpt lat="43.92275" lon="1.7583">
        <ele>208</ele>
        <time>2019-02-13T12:02:07+01:00</time>
      </trkpt>
      <trkpt lat="43.92297" lon="1.75821">
        <ele>207</ele>
        <time>2019-02-13T12:02:28+01:00</time>
      </trkpt>
      <trkpt lat="43.92319" lon="1.75819">
        <ele>208</ele>
        <time>2019-02-13T12:02:49+01:00</time>
      </trkpt>
      <trkpt lat="43.92343" lon="1.75814">
        <ele>209</ele>
        <time>2019-02-13T12:03:09+01:00</time>
      </trkpt>
      <trkpt lat="43.92365" lon="1.75807">
        <ele>210</ele>
        <time>2019-02-13T12:03:30+01:00</time>
      </trkpt>
      <trkpt lat="43.92388" lon="1.75801">
        <ele>212</ele>
        <time>2019-02-13T12:03:52+01:00</time>
      </trkpt>
      <trkpt lat="43.92409" lon="1.75789">
        <ele>214</ele>
        <time>2019-02-13T12:04:16+01:00</time>
      </trkpt>
      <trkpt lat="43.92429" lon="1.75774">
        <ele>213</ele>
        <time>2019-02-13T12:04:37+01:00</time>
      </trkpt>
      <trkpt lat="43.92451" lon="1.75763">
        <ele>215</ele>
        <time>2019-02-13T12:04:58+01:00</time>
      </trkpt>
      <trkpt lat="43.92469" lon="1.75744">
        <ele>217</ele>
        <time>2019-02-13T12:05:22+01:00</time>
      </trkpt>
      <trkpt lat="43.92482" lon="1.75718">
        <ele>219</ele>
        <time>2019-02-13T12:05:47+01:00</time>
      </trkpt>
      <trkpt lat="43.92485" lon="1.75687">
        <ele>222</ele>
        <time>2019-02-13T12:06:12+01:00</time>
      </trkpt>
      <trkpt lat="43.9249" lon="1.75656">
        <ele>225</ele>
        <time>2019-02-13T12:06:42+01:00</time>
      </trkpt>
      <trkpt lat="43.92504" lon="1.75631">
        <ele>229</ele>
        <time>2019-02-13T12:07:08+01:00</time>
      </trkpt>
      <trkpt lat="43.92517" lon="1.75605">
        <ele>232</ele>
        <time>2019-02-13T12:07:29+01:00</time>
      </trkpt>
      <trkpt lat="43.92527" lon="1.75577">
        <ele>236</ele>
        <time>2019-02-13T12:07:47+01:00</time>
      </trkpt>
      <trkpt lat="43.92536" lon="1.75548">
        <ele>240</ele>
        <time>2019-02-13T12:08:04+01:00</time>
      </trkpt>
      <trkpt lat="43.92552" lon="1.75524">
        <ele>243</ele>
        <time>2019-02-13T12:08:19+01:00</time>
      </trkpt>
      <trkpt lat="43.92566" lon="1.75498">
        <ele>247</ele>
        <time>2019-02-13T12:08:36+01:00</time>
      </trkpt>
      <trkpt lat="43.92574" lon="1.75468">
        <ele>251</ele>
        <time>2019-02-13T12:08:57+01:00</time>
      </trkpt>
      <trkpt lat="43.92596" lon="1.75475">
        <ele>253</ele>
        <time>2019-02-13T12:14:31+01:00</time>
      </trkpt>
      <trkpt lat="43.92612" lon="1.75499">
        <ele>252</ele>
        <time>2019-02-13T12:14:53+01:00</time>
      </trkpt>
      <trkpt lat="43.92632" lon="1.75516">
        <ele>253</ele>
        <time>2019-02-13T12:15:15+01:00</time>
      </trkpt>
      <trkpt lat="43.92653" lon="1.75529">
        <ele>253</ele>
        <time>2019-02-13T12:15:35+01:00</time>
      </trkpt>
      <trkpt lat="43.92673" lon="1.75543">
        <ele>254</ele>
        <time>2019-02-13T12:15:54+01:00</time>
      </trkpt>
      <trkpt lat="43.92695" lon="1.75553">
        <ele>255</ele>
        <time>2019-02-13T12:16:14+01:00</time>
      </trkpt>
      <trkpt lat="43.92717" lon="1.75564">
        <ele>257</ele>
        <time>2019-02-13T12:16:34+01:00</time>
      </trkpt>
      <trkpt lat="43.92739" lon="1.75571">
        <ele>259</ele>
        <time>2019-02-13T12:16:53+01:00</time>
      </trkpt>
      <trkpt lat="43.92762" lon="1.75574">
        <ele>259</ele>
        <time>2019-02-13T12:17:10+01:00</time>
      </trkpt>
      <trkpt lat="43.92785" lon="1.75575">
        <ele>259</ele>
        <time>2019-02-13T12:17:30+01:00</time>
      </trkpt>
      <trkpt lat="43.92807" lon="1.75578">
        <ele>258</ele>
        <time>2019-02-13T12:17:47+01:00</time>
      </trkpt>
      <trkpt lat="43.92829" lon="1.75587">
        <ele>258</ele>
        <time>2019-02-13T12:18:05+01:00</time>
      </trkpt>
      <trkpt lat="43.92852" lon="1.75598">
        <ele>259</ele>
        <time>2019-02-13T12:18:25+01:00</time>
      </trkpt>
      <trkpt lat="43.92873" lon="1.75611">
        <ele>260</ele>
        <time>2019-02-13T12:18:46+01:00</time>
      </trkpt>
      <trkpt lat="43.92887" lon="1.75587">
        <ele>260</ele>
        <time>2019-02-13T12:19:07+01:00</time>
      </trkpt>
      <trkpt lat="43.92895" lon="1.75558">
        <ele>259</ele>
        <time>2019-02-13T12:19:25+01:00</time>
      </trkpt>
      <trkpt lat="43.92908" lon="1.7553">
        <ele>258</ele>
        <time>2019-02-13T12:19:44+01:00</time>
      </trkpt>
      <trkpt lat="43.92923" lon="1.75506">
        <ele>256</ele>
        <time>2019-02-13T12:20:02+01:00</time>
      </trkpt>
      <trkpt lat="43.92941" lon="1.75484">
        <ele>254</ele>
        <time>2019-02-13T12:20:22+01:00</time>
      </trkpt>
      <trkpt lat="43.92964" lon="1.75481">
        <ele>252</ele>
        <time>2019-02-13T12:20:42+01:00</time>
      </trkpt>
      <trkpt lat="43.92986" lon="1.75491">
        <ele>250</ele>
        <time>2019-02-13T12:21:01+01:00</time>
      </trkpt>
      <trkpt lat="43.93007" lon="1.75481">
        <ele>248</ele>
        <time>2019-02-13T12:21:17+01:00</time>
      </trkpt>
      <trkpt lat="43.93025" lon="1.75462">
        <ele>246</ele>
        <time>2019-02-13T12:21:32+01:00</time>
      </trkpt>
      <trkpt lat="43.93042" lon="1.75441">
        <ele>244</ele>
        <time>2019-02-13T12:21:47+01:00</time>
      </trkpt>
      <trkpt lat="43.93049" lon="1.75411">
        <ele>242</ele>
        <time>2019-02-13T12:22:06+01:00</time>
      </trkpt>
      <trkpt lat="43.93055" lon="1.75381">
        <ele>239</ele>
        <time>2019-02-13T12:22:28+01:00</time>
      </trkpt>
      <trkpt lat="43.93054" lon="1.75348">
        <ele>238</ele>
        <time>2019-02-13T12:22:46+01:00</time>
      </trkpt>
      <trkpt lat="43.93059" lon="1.75317">
        <ele>236</ele>
        <time>2019-02-13T12:23:05+01:00</time>
      </trkpt>
      <trkpt lat="43.93056" lon="1.75284">
        <ele>234</ele>
        <time>2019-02-13T12:23:24+01:00</time>
      </trkpt>
      <trkpt lat="43.93049" lon="1.75253">
        <ele>232</ele>
        <time>2019-02-13T12:23:40+01:00</time>
      </trkpt>
      <trkpt lat="43.93044" lon="1.75222">
        <ele>230</ele>
        <time>2019-02-13T12:24:01+01:00</time>
      </trkpt>
      <trkpt lat="43.93042" lon="1.7519">
        <ele>228</ele>
        <time>2019-02-13T12:24:20+01:00</time>
      </trkpt>
      <trkpt lat="43.93049" lon="1.75159">
        <ele>226</ele>
        <time>2019-02-13T12:24:39+01:00</time>
      </trkpt>
      <trkpt lat="43.93056" lon="1.75129">
        <ele>224</ele>
        <time>2019-02-13T12:24:57+01:00</time>
      </trkpt>
      <trkpt lat="43.93056" lon="1.75097">
        <ele>222</ele>
        <time>2019-02-13T12:25:15+01:00</time>
      </trkpt>
      <trkpt lat="43.93074" lon="1.75078">
        <ele>220</ele>
        <time>2019-02-13T12:25:31+01:00</time>
      </trkpt>
      <trkpt lat="43.93089" lon="1.75054">
        <ele>218</ele>
        <time>2019-02-13T12:25:52+01:00</time>
      </trkpt>
      <trkpt lat="43.93109" lon="1.7504">
        <ele>216</ele>
        <time>2019-02-13T12:26:18+01:00</time>
      </trkpt>
      <trkpt lat="43.93132" lon="1.75042">
        <ele>214</ele>
        <time>2019-02-13T12:26:35+01:00</time>
      </trkpt>
      <trkpt lat="43.93155" lon="1.75051">
        <ele>212</ele>
        <time>2019-02-13T12:26:54+01:00</time>
      </trkpt>
      <trkpt lat="43.93176" lon="1.75061">
        <ele>210</ele>
        <time>2019-02-13T12:27:13+01:00</time>
      </trkpt>
      <trkpt lat="43.932" lon="1.75066">
        <ele>210</ele>
        <time>2019-02-13T12:28:09+01:00</time>
      </trkpt>
      <trkpt lat="43.93197" lon="1.75035">
        <ele>210</ele>
        <time>2019-02-13T12:28:59+01:00</time>
      </trkpt>
      <trkpt lat="43.93191" lon="1.75005">
        <ele>211</ele>
        <time>2019-02-13T12:29:25+01:00</time>
      </trkpt>
      <trkpt lat="43.93172" lon="1.74986">
        <ele>213</ele>
        <time>2019-02-13T12:29:43+01:00</time>
      </trkpt>
      <trkpt lat="43.93155" lon="1.74964">
        <ele>214</ele>
        <time>2019-02-13T12:30:01+01:00</time>
      </trkpt>
      <trkpt lat="43.93147" lon="1.74935">
        <ele>213</ele>
        <time>2019-02-13T12:30:21+01:00</time>
      </trkpt>
      <trkpt lat="43.93153" lon="1.74904">
        <ele>214</ele>
        <time>2019-02-13T12:30:40+01:00</time>
      </trkpt>
      <trkpt lat="43.93157" lon="1.74873">
        <ele>214</ele>
        <time>2019-02-13T12:31:00+01:00</time>
      </trkpt>
      <trkpt lat="43.93163" lon="1.74843">
        <ele>216</ele>
        <time>2019-02-13T12:31:19+01:00</time>
      </trkpt>
      <trkpt lat="43.93164" lon="1.74875">
        <ele>218</ele>
        <time>2019-02-13T12:31:37+01:00</time>
      </trkpt>
      <trkpt lat="43.93165" lon="1.74907">
        <ele>219</ele>
        <time>2019-02-13T12:31:54+01:00</time>
      </trkpt>
      <trkpt lat="43.93165" lon="1.74939">
        <ele>221</ele>
        <time>2019-02-13T12:32:09+01:00</time>
      </trkpt>
      <trkpt lat="43.93182" lon="1.74961">
        <ele>222</ele>
        <time>2019-02-13T12:32:27+01:00</time>
      </trkpt>
      <trkpt lat="43.93202" lon="1.74945">
        <ele>223</ele>
        <time>2019-02-13T12:32:40+01:00</time>
      </trkpt>
      <trkpt lat="43.93223" lon="1.7493">
        <ele>224</ele>
        <time>2019-02-13T12:32:56+01:00</time>
      </trkpt>
      <trkpt lat="43.93244" lon="1.74917">
        <ele>226</ele>
        <time>2019-02-13T12:33:13+01:00</time>
      </trkpt>
      <trkpt lat="43.93267" lon="1.74911">
        <ele>228</ele>
        <time>2019-02-13T12:33:31+01:00</time>
      </trkpt>
      <trkpt lat="43.93288" lon="1.74925">
        <ele>230</ele>
        <time>2019-02-13T12:33:48+01:00</time>
      </trkpt>
      <trkpt lat="43.93286" lon="1.74956">
        <ele>231</ele>
        <time>2019-02-13T12:34:02+01:00</time>
      </trkpt>
      <trkpt lat="43.93277" lon="1.74985">
        <ele>233</ele>
        <time>2019-02-13T12:34:21+01:00</time>
      </trkpt>
      <trkpt lat="43.93274" lon="1.75017">
        <ele>235</ele>
        <time>2019-02-13T12:34:40+01:00</time>
      </trkpt>
      <trkpt lat="43.93284" lon="1.75045">
        <ele>236</ele>
        <time>2019-02-13T12:34:56+01:00</time>
      </trkpt>
      <trkpt lat="43.93296" lon="1.75073">
        <ele>238</ele>
        <time>2019-02-13T12:35:13+01:00</time>
      </trkpt>
      <trkpt lat="43.93313" lon="1.75094">
        <ele>239</ele>
        <time>2019-02-13T12:35:31+01:00</time>
      </trkpt>
      <trkpt lat="43.93336" lon="1.75101">
        <ele>242</ele>
        <time>2019-02-13T12:35:51+01:00</time>
      </trkpt>
      <trkpt lat="43.93355" lon="1.75083">
        <ele>244</ele>
        <time>2019-02-13T12:36:06+01:00</time>
      </trkpt>
      <trkpt lat="43.93364" lon="1.75053">
        <ele>246</ele>
        <time>2019-02-13T12:36:23+01:00</time>
      </trkpt>
      <trkpt lat="43.9337" lon="1.75022">
        <ele>247</ele>
        <time>2019-02-13T12:36:41+01:00</time>
      </trkpt>
      <trkpt lat="43.93379" lon="1.74993">
        <ele>248</ele>
        <time>2019-02-13T12:36:58+01:00</time>
      </trkpt>
      <trkpt lat="43.93392" lon="1.74966">
        <ele>250</ele>
        <time>2019-02-13T12:37:13+01:00</time>
      </trkpt>
      <trkpt lat="43.93391" lon="1.74935">
        <ele>251</ele>
        <time>2019-02-13T12:37:29+01:00</time>
      </trkpt>
      <trkpt lat="43.934" lon="1.74905">
        <ele>253</ele>
        <time>2019-02-13T12:37:45+01:00</time>
      </trkpt>
      <trkpt lat="43.93394" lon="1.74874">
        <ele>254</ele>
        <time>2019-02-13T12:38:00+01:00</time>
      </trkpt>
      <trkpt lat="43.9339" lon="1.74843">
        <ele>256</ele>
        <time>2019-02-13T12:38:17+01:00</time>
      </trkpt>
      <trkpt lat="43.93377" lon="1.74816">
        <ele>258</ele>
        <time>2019-02-13T12:38:31+01:00</time>
      </trkpt>
      <trkpt lat="43.93366" lon="1.74787">
        <ele>258</ele>
        <time>2019-02-13T12:38:46+01:00</time>
      </trkpt>
      <trkpt lat="43.9336" lon="1.74755">
        <ele>260</ele>
        <time>2019-02-13T12:39:02+01:00</time>
      </trkpt>
      <trkpt lat="43.93365" lon="1.74724">
        <ele>260</ele>
        <time>2019-02-13T12:39:19+01:00</time>
      </trkpt>
      <trkpt lat="43.93369" lon="1.74692">
        <ele>259</ele>
        <time>2019-02-13T12:39:35+01:00</time>
      </trkpt>
      <trkpt lat="43.93378" lon="1.74662">
        <ele>258</ele>
        <time>2019-02-13T12:39:53+01:00</time>
      </trkpt>
      <trkpt lat="43.93391" lon="1.74636">
        <ele>257</ele>
        <time>2019-02-13T12:40:07+01:00</time>
      </trkpt>
      <trkpt lat="43.93411" lon="1.7462">
        <ele>258</ele>
        <time>2019-02-13T12:40:30+01:00</time>
      </trkpt>
      <trkpt lat="43.93435" lon="1.74621">
        <ele>258</ele>
        <time>2019-02-13T12:42:37+01:00</time>
      </trkpt>
      <trkpt lat="43.93455" lon="1.74604">
        <ele>258</ele>
        <time>2019-02-13T12:42:56+01:00</time>
      </trkpt>
      <trkpt lat="43.93473" lon="1.74582">
        <ele>259</ele>
        <time>2019-02-13T12:43:12+01:00</time>
      </trkpt>
      <trkpt lat="43.93481" lon="1.7455">
        <ele>261</ele>
        <time>2019-02-13T12:43:31+01:00</time>
      </trkpt>
      <trkpt lat="43.93483" lon="1.74518">
        <ele>263</ele>
        <time>2019-02-13T12:43:49+01:00</time>
      </trkpt>
      <trkpt lat="43.93481" lon="1.74487">
        <ele>263</ele>
        <time>2019-02-13T12:44:09+01:00</time>
      </trkpt>
      <trkpt lat="43.93471" lon="1.74456">
        <ele>263</ele>
        <time>2019-02-13T12:44:51+01:00</time>
      </trkpt>
      <trkpt lat="43.93451" lon="1.7444">
        <ele>263</ele>
        <time>2019-02-13T12:48:51+01:00</time>
      </trkpt>
      <trkpt lat="43.93432" lon="1.74422">
        <ele>263</ele>
        <time>2019-02-13T12:49:09+01:00</time>
      </trkpt>
      <trkpt lat="43.93411" lon="1.74409">
        <ele>264</ele>
        <time>2019-02-13T12:49:27+01:00</time>
      </trkpt>
      <trkpt lat="43.93388" lon="1.74399">
        <ele>263</ele>
        <time>2019-02-13T12:49:44+01:00</time>
      </trkpt>
      <trkpt lat="43.93367" lon="1.74388">
        <ele>263</ele>
        <time>2019-02-13T12:50:03+01:00</time>
      </trkpt>
      <trkpt lat="43.93345" lon="1.7438">
        <ele>263</ele>
        <time>2019-02-13T12:50:20+01:00</time>
      </trkpt>
      <trkpt lat="43.93322" lon="1.74377">
        <ele>264</ele>
        <time>2019-02-13T12:50:38+01:00</time>
      </trkpt>
      <trkpt lat="43.93299" lon="1.7438">
        <ele>264</ele>
        <time>2019-02-13T12:50:57+01:00</time>
      </trkpt>
      <trkpt lat="43.93276" lon="1.74378">
        <ele>264</ele>
        <time>2019-02-13T12:51:15+01:00</time>
      </trkpt>
      <trkpt lat="43.93253" lon="1.74371">
        <ele>264</ele>
        <time>2019-02-13T12:51:30+01:00</time>
      </trkpt>
      <trkpt lat="43.9323" lon="1.7437">
        <ele>263</ele>
        <time>2019-02-13T12:51:47+01:00</time>
      </trkpt>
      <trkpt lat="43.93207" lon="1.7437">
        <ele>263</ele>
        <time>2019-02-13T12:52:03+01:00</time>
      </trkpt>
      <trkpt lat="43.93185" lon="1.74362">
        <ele>262</ele>
        <time>2019-02-13T12:52:19+01:00</time>
      </trkpt>
      <trkpt lat="43.93166" lon="1.74343">
        <ele>262</ele>
        <time>2019-02-13T12:52:35+01:00</time>
      </trkpt>
      <trkpt lat="43.93147" lon="1.74326">
        <ele>262</ele>
        <time>2019-02-13T12:52:53+01:00</time>
      </trkpt>
      <trkpt lat="43.93127" lon="1.7431">
        <ele>263</ele>
        <time>2019-02-13T12:53:10+01:00</time>
      </trkpt>
      <trkpt lat="43.93105" lon="1.74299">
        <ele>264</ele>
        <time>2019-02-13T12:53:26+01:00</time>
      </trkpt>
      <trkpt lat="43.93083" lon="1.74288">
        <ele>264</ele>
        <time>2019-02-13T12:53:43+01:00</time>
      </trkpt>
      <trkpt lat="43.9306" lon="1.74279">
        <ele>264</ele>
        <time>2019-02-13T12:54:00+01:00</time>
      </trkpt>
      <trkpt lat="43.93038" lon="1.74267">
        <ele>263</ele>
        <time>2019-02-13T12:54:18+01:00</time>
      </trkpt>
      <trkpt lat="43.93028" lon="1.74238">
        <ele>263</ele>
        <time>2019-02-13T12:54:37+01:00</time>
      </trkpt>
      <trkpt lat="43.93033" lon="1.74206">
        <ele>262</ele>
        <time>2019-02-13T12:54:53+01:00</time>
      </trkpt>
      <trkpt lat="43.93035" lon="1.74175">
        <ele>261</ele>
        <time>2019-02-13T12:55:09+01:00</time>
      </trkpt>
      <trkpt lat="43.93022" lon="1.74148">
        <ele>261</ele>
        <time>2019-02-13T12:55:25+01:00</time>
      </trkpt>
      <trkpt lat="43.93009" lon="1.74122">
        <ele>262</ele>
        <time>2019-02-13T12:55:42+01:00</time>
      </trkpt>
      <trkpt lat="43.93005" lon="1.7409">
        <ele>262</ele>
        <time>2019-02-13T12:56:27+01:00</time>
      </trkpt>
      <trkpt lat="43.92997" lon="1.74103">
        <ele>271</ele>
        <time>2019-02-13T13:06:08+01:00</time>
      </trkpt>
      <trkpt lat="43.92988" lon="1.74074">
        <ele>257</ele>
        <time>2019-02-13T13:34:15+01:00</time>
      </trkpt>
      <trkpt lat="43.92971" lon="1.74052">
        <ele>254</ele>
        <time>2019-02-13T13:34:33+01:00</time>
      </trkpt>
      <trkpt lat="43.92953" lon="1.74032">
        <ele>251</ele>
        <time>2019-02-13T13:34:50+01:00</time>
      </trkpt>
      <trkpt lat="43.92933" lon="1.74017">
        <ele>247</ele>
        <time>2019-02-13T13:35:13+01:00</time>
      </trkpt>
      <trkpt lat="43.92914" lon="1.73998">
        <ele>243</ele>
        <time>2019-02-13T13:35:36+01:00</time>
      </trkpt>
      <trkpt lat="43.92898" lon="1.73976">
        <ele>237</ele>
        <time>2019-02-13T13:36:03+01:00</time>
      </trkpt>
      <trkpt lat="43.92881" lon="1.73954">
        <ele>231</ele>
        <time>2019-02-13T13:36:28+01:00</time>
      </trkpt>
      <trkpt lat="43.92868" lon="1.73927">
        <ele>227</ele>
        <time>2019-02-13T13:36:51+01:00</time>
      </trkpt>
      <trkpt lat="43.92852" lon="1.73903">
        <ele>224</ele>
        <time>2019-02-13T13:37:09+01:00</time>
      </trkpt>
      <trkpt lat="43.9283" lon="1.73896">
        <ele>220</ele>
        <time>2019-02-13T13:37:28+01:00</time>
      </trkpt>
      <trkpt lat="43.92809" lon="1.73883">
        <ele>214</ele>
        <time>2019-02-13T13:37:55+01:00</time>
      </trkpt>
      <trkpt lat="43.92789" lon="1.73869">
        <ele>207</ele>
        <time>2019-02-13T13:38:22+01:00</time>
      </trkpt>
      <trkpt lat="43.9277" lon="1.73851">
        <ele>204</ele>
        <time>2019-02-13T13:38:42+01:00</time>
      </trkpt>
      <trkpt lat="43.92753" lon="1.73828">
        <ele>202</ele>
        <time>2019-02-13T13:39:08+01:00</time>
      </trkpt>
      <trkpt lat="43.92736" lon="1.73806">
        <ele>202</ele>
        <time>2019-02-13T13:39:30+01:00</time>
      </trkpt>
      <trkpt lat="43.92727" lon="1.73777">
        <ele>203</ele>
        <time>2019-02-13T13:39:55+01:00</time>
      </trkpt>
      <trkpt lat="43.92735" lon="1.73747">
        <ele>203</ele>
        <time>2019-02-13T13:40:17+01:00</time>
      </trkpt>
      <trkpt lat="43.92755" lon="1.73731">
        <ele>203</ele>
        <time>2019-02-13T13:40:43+01:00</time>
      </trkpt>
      <trkpt lat="43.92777" lon="1.73722">
        <ele>205</ele>
        <time>2019-02-13T13:41:03+01:00</time>
      </trkpt>
      <trkpt lat="43.92798" lon="1.73708">
        <ele>206</ele>
        <time>2019-02-13T13:41:23+01:00</time>
      </trkpt>
      <trkpt lat="43.92821" lon="1.73703">
        <ele>206</ele>
        <time>2019-02-13T13:41:44+01:00</time>
      </trkpt>
      <trkpt lat="43.92843" lon="1.73695">
        <ele>206</ele>
        <time>2019-02-13T13:42:10+01:00</time>
      </trkpt>
      <trkpt lat="43.92862" lon="1.73677">
        <ele>206</ele>
        <time>2019-02-13T13:42:28+01:00</time>
      </trkpt>
      <trkpt lat="43.92885" lon="1.73676">
        <ele>205</ele>
        <time>2019-02-13T13:42:45+01:00</time>
      </trkpt>
      <trkpt lat="43.92908" lon="1.73678">
        <ele>205</ele>
        <time>2019-02-13T13:43:08+01:00</time>
      </trkpt>
      <trkpt lat="43.92931" lon="1.73683">
        <ele>205</ele>
        <time>2019-02-13T13:43:26+01:00</time>
      </trkpt>
      <trkpt lat="43.92954" lon="1.73688">
        <ele>205</ele>
        <time>2019-02-13T13:43:45+01:00</time>
      </trkpt>
      <trkpt lat="43.92977" lon="1.73691">
        <ele>206</ele>
        <time>2019-02-13T13:44:06+01:00</time>
      </trkpt>
      <trkpt lat="43.92999" lon="1.73684">
        <ele>207</ele>
        <time>2019-02-13T13:44:30+01:00</time>
      </trkpt>
      <trkpt lat="43.93019" lon="1.73668">
        <ele>208</ele>
        <time>2019-02-13T13:44:51+01:00</time>
      </trkpt>
      <trkpt lat="43.93041" lon="1.73658">
        <ele>211</ele>
        <time>2019-02-13T13:45:15+01:00</time>
      </trkpt>
      <trkpt lat="43.93062" lon="1.73643">
        <ele>209</ele>
        <time>2019-02-13T13:45:31+01:00</time>
      </trkpt>
      <trkpt lat="43.93081" lon="1.73626">
        <ele>208</ele>
        <time>2019-02-13T13:45:50+01:00</time>
      </trkpt>
      <trkpt lat="43.93099" lon="1.73605">
        <ele>208</ele>
        <time>2019-02-13T13:46:21+01:00</time>
      </trkpt>
      <trkpt lat="43.93104" lon="1.73574">
        <ele>208</ele>
        <time>2019-02-13T13:46:40+01:00</time>
      </trkpt>
      <trkpt lat="43.93106" lon="1.73543">
        <ele>210</ele>
        <time>2019-02-13T13:47:03+01:00</time>
      </trkpt>
      <trkpt lat="43.93119" lon="1.73516">
        <ele>210</ele>
        <time>2019-02-13T13:47:22+01:00</time>
      </trkpt>
      <trkpt lat="43.93127" lon="1.73485">
        <ele>211</ele>
        <time>2019-02-13T13:47:41+01:00</time>
      </trkpt>
      <trkpt lat="43.93143" lon="1.73464">
        <ele>212</ele>
        <time>2019-02-13T13:48:02+01:00</time>
      </trkpt>
      <trkpt lat="43.93162" lon="1.73445">
        <ele>213</ele>
        <time>2019-02-13T13:48:22+01:00</time>
      </trkpt>
      <trkpt lat="43.93178" lon="1.73422">
        <ele>214</ele>
        <time>2019-02-13T13:48:42+01:00</time>
      </trkpt>
      <trkpt lat="43.93192" lon="1.73395">
        <ele>215</ele>
        <time>2019-02-13T13:49:02+01:00</time>
      </trkpt>
      <trkpt lat="43.93209" lon="1.73373">
        <ele>217</ele>
        <time>2019-02-13T13:49:21+01:00</time>
      </trkpt>
      <trkpt lat="43.93225" lon="1.73352">
        <ele>219</ele>
        <time>2019-02-13T13:49:46+01:00</time>
      </trkpt>
      <trkpt lat="43.93245" lon="1.73334">
        <ele>222</ele>
        <time>2019-02-13T13:50:06+01:00</time>
      </trkpt>
      <trkpt lat="43.9326" lon="1.7331">
        <ele>222</ele>
        <time>2019-02-13T13:50:29+01:00</time>
      </trkpt>
      <trkpt lat="43.93277" lon="1.73288">
        <ele>221</ele>
        <time>2019-02-13T13:50:48+01:00</time>
      </trkpt>
      <trkpt lat="43.93295" lon="1.7327">
        <ele>221</ele>
        <time>2019-02-13T13:51:07+01:00</time>
      </trkpt>
      <trkpt lat="43.9331" lon="1.73245">
        <ele>218</ele>
        <time>2019-02-13T13:51:27+01:00</time>
      </trkpt>
      <trkpt lat="43.93326" lon="1.73223">
        <ele>217</ele>
        <time>2019-02-13T13:51:48+01:00</time>
      </trkpt>
      <trkpt lat="43.93348" lon="1.73214">
        <ele>217</ele>
        <time>2019-02-13T13:52:02+01:00</time>
      </trkpt>
      <trkpt lat="43.9337" lon="1.73202">
        <ele>218</ele>
        <time>2019-02-13T13:52:20+01:00</time>
      </trkpt>
      <trkpt lat="43.93391" lon="1.73185">
        <ele>220</ele>
        <time>2019-02-13T13:52:36+01:00</time>
      </trkpt>
      <trkpt lat="43.93408" lon="1.73165">
        <ele>220</ele>
        <time>2019-02-13T13:52:54+01:00</time>
      </trkpt>
      <trkpt lat="43.93427" lon="1.73147">
        <ele>221</ele>
        <time>2019-02-13T13:53:12+01:00</time>
      </trkpt>
      <trkpt lat="43.93447" lon="1.73131">
        <ele>222</ele>
        <time>2019-02-13T13:53:27+01:00</time>
      </trkpt>
      <trkpt lat="43.93466" lon="1.73113">
        <ele>222</ele>
        <time>2019-02-13T13:53:42+01:00</time>
      </trkpt>
      <trkpt lat="43.93483" lon="1.7309">
        <ele>223</ele>
        <time>2019-02-13T13:54:00+01:00</time>
      </trkpt>
      <trkpt lat="43.93498" lon="1.73065">
        <ele>225</ele>
        <time>2019-02-13T13:54:18+01:00</time>
      </trkpt>
      <trkpt lat="43.93513" lon="1.73042">
        <ele>224</ele>
        <time>2019-02-13T13:54:34+01:00</time>
      </trkpt>
      <trkpt lat="43.9353" lon="1.7302">
        <ele>224</ele>
        <time>2019-02-13T13:54:48+01:00</time>
      </trkpt>
      <trkpt lat="43.9355" lon="1.73007">
        <ele>224</ele>
        <time>2019-02-13T13:55:06+01:00</time>
      </trkpt>
      <trkpt lat="43.9357" lon="1.72991">
        <ele>224</ele>
        <time>2019-02-13T13:55:24+01:00</time>
      </trkpt>
      <trkpt lat="43.93593" lon="1.72984">
        <ele>225</ele>
        <time>2019-02-13T13:55:41+01:00</time>
      </trkpt>
      <trkpt lat="43.93614" lon="1.72969">
        <ele>225</ele>
        <time>2019-02-13T13:55:58+01:00</time>
      </trkpt>
      <trkpt lat="43.93628" lon="1.72943">
        <ele>227</ele>
        <time>2019-02-13T14:02:49+01:00</time>
      </trkpt>
      <trkpt lat="43.93647" lon="1.72924">
        <ele>228</ele>
        <time>2019-02-13T14:03:06+01:00</time>
      </trkpt>
      <trkpt lat="43.93665" lon="1.72905">
        <ele>228</ele>
        <time>2019-02-13T14:03:25+01:00</time>
      </trkpt>
      <trkpt lat="43.93683" lon="1.72887">
        <ele>230</ele>
        <time>2019-02-13T14:03:43+01:00</time>
      </trkpt>
      <trkpt lat="43.937" lon="1.72866">
        <ele>231</ele>
        <time>2019-02-13T14:03:59+01:00</time>
      </trkpt>
      <trkpt lat="43.93713" lon="1.72839">
        <ele>234</ele>
        <time>2019-02-13T14:04:17+01:00</time>
      </trkpt>
      <trkpt lat="43.93734" lon="1.72823">
        <ele>237</ele>
        <time>2019-02-13T14:04:32+01:00</time>
      </trkpt>
      <trkpt lat="43.93748" lon="1.72799">
        <ele>241</ele>
        <time>2019-02-13T14:04:51+01:00</time>
      </trkpt>
      <trkpt lat="43.93769" lon="1.72784">
        <ele>245</ele>
        <time>2019-02-13T14:05:06+01:00</time>
      </trkpt>
      <trkpt lat="43.93789" lon="1.72769">
        <ele>249</ele>
        <time>2019-02-13T14:05:23+01:00</time>
      </trkpt>
      <trkpt lat="43.93805" lon="1.72747">
        <ele>251</ele>
        <time>2019-02-13T14:05:40+01:00</time>
      </trkpt>
      <trkpt lat="43.93817" lon="1.7272">
        <ele>254</ele>
        <time>2019-02-13T14:05:57+01:00</time>
      </trkpt>
      <trkpt lat="43.93833" lon="1.72697">
        <ele>257</ele>
        <time>2019-02-13T14:06:12+01:00</time>
      </trkpt>
      <trkpt lat="43.93849" lon="1.72674">
        <ele>261</ele>
        <time>2019-02-13T14:06:32+01:00</time>
      </trkpt>
      <trkpt lat="43.93862" lon="1.72647">
        <ele>263</ele>
        <time>2019-02-13T14:06:49+01:00</time>
      </trkpt>
      <trkpt lat="43.93874" lon="1.72619">
        <ele>265</ele>
        <time>2019-02-13T14:07:04+01:00</time>
      </trkpt>
      <trkpt lat="43.93887" lon="1.72592">
        <ele>266</ele>
        <time>2019-02-13T14:07:20+01:00</time>
      </trkpt>
      <trkpt lat="43.93901" lon="1.72567">
        <ele>267</ele>
        <time>2019-02-13T14:07:46+01:00</time>
      </trkpt>
      <trkpt lat="43.93918" lon="1.72544">
        <ele>268</ele>
        <time>2019-02-13T14:12:01+01:00</time>
      </trkpt>
      <trkpt lat="43.93931" lon="1.72519">
        <ele>268</ele>
        <time>2019-02-13T14:12:21+01:00</time>
      </trkpt>
      <trkpt lat="43.93941" lon="1.7249">
        <ele>269</ele>
        <time>2019-02-13T14:12:41+01:00</time>
      </trkpt>
      <trkpt lat="43.93948" lon="1.72458">
        <ele>270</ele>
        <time>2019-02-13T14:13:02+01:00</time>
      </trkpt>
      <trkpt lat="43.93947" lon="1.72427">
        <ele>271</ele>
        <time>2019-02-13T14:13:22+01:00</time>
      </trkpt>
      <trkpt lat="43.93934" lon="1.72399">
        <ele>271</ele>
        <time>2019-02-13T14:13:39+01:00</time>
      </trkpt>
      <trkpt lat="43.93914" lon="1.72381">
        <ele>270</ele>
        <time>2019-02-13T14:13:58+01:00</time>
      </trkpt>
      <trkpt lat="43.93893" lon="1.72367">
        <ele>270</ele>
        <time>2019-02-13T14:14:16+01:00</time>
      </trkpt>
      <trkpt lat="43.93875" lon="1.72348">
        <ele>271</ele>
        <time>2019-02-13T14:14:33+01:00</time>
      </trkpt>
      <trkpt lat="43.93857" lon="1.72327">
        <ele>270</ele>
        <time>2019-02-13T14:14:51+01:00</time>
      </trkpt>
      <trkpt lat="43.93837" lon="1.72312">
        <ele>269</ele>
        <time>2019-02-13T14:15:09+01:00</time>
      </trkpt>
      <trkpt lat="43.93836" lon="1.72281">
        <ele>269</ele>
        <time>2019-02-13T14:15:45+01:00</time>
      </trkpt>
      <trkpt lat="43.93852" lon="1.7226">
        <ele>270</ele>
        <time>2019-02-13T14:16:02+01:00</time>
      </trkpt>
      <trkpt lat="43.9387" lon="1.72237">
        <ele>270</ele>
        <time>2019-02-13T14:16:19+01:00</time>
      </trkpt>
      <trkpt lat="43.93877" lon="1.72208">
        <ele>270</ele>
        <time>2019-02-13T14:16:37+01:00</time>
      </trkpt>
      <trkpt lat="43.93872" lon="1.72177">
        <ele>269</ele>
        <time>2019-02-13T14:16:55+01:00</time>
      </trkpt>
      <trkpt lat="43.9387" lon="1.72145">
        <ele>269</ele>
        <time>2019-02-13T14:17:12+01:00</time>
      </trkpt>
      <trkpt lat="43.93869" lon="1.72112">
        <ele>269</ele>
        <time>2019-02-13T14:17:31+01:00</time>
      </trkpt>
      <trkpt lat="43.93867" lon="1.7208">
        <ele>268</ele>
        <time>2019-02-13T14:17:50+01:00</time>
      </trkpt>
      <trkpt lat="43.93868" lon="1.72049">
        <ele>267</ele>
        <time>2019-02-13T14:18:07+01:00</time>
      </trkpt>
      <trkpt lat="43.93872" lon="1.72017">
        <ele>267</ele>
        <time>2019-02-13T14:18:24+01:00</time>
      </trkpt>
      <trkpt lat="43.93876" lon="1.71985">
        <ele>267</ele>
        <time>2019-02-13T14:18:41+01:00</time>
      </trkpt>
      <trkpt lat="43.93887" lon="1.71957">
        <ele>266</ele>
        <time>2019-02-13T14:18:55+01:00</time>
      </trkpt>
      <trkpt lat="43.93894" lon="1.71927">
        <ele>267</ele>
        <time>2019-02-13T14:19:14+01:00</time>
      </trkpt>
      <trkpt lat="43.93895" lon="1.71894">
        <ele>267</ele>
        <time>2019-02-13T14:19:33+01:00</time>
      </trkpt>
      <trkpt lat="43.93898" lon="1.71863">
        <ele>268</ele>
        <time>2019-02-13T14:19:51+01:00</time>
      </trkpt>
      <trkpt lat="43.93904" lon="1.71833">
        <ele>268</ele>
        <time>2019-02-13T14:20:09+01:00</time>
      </trkpt>
      <trkpt lat="43.93918" lon="1.71807">
        <ele>268</ele>
        <time>2019-02-13T14:20:27+01:00</time>
      </trkpt>
      <trkpt lat="43.9393" lon="1.71779">
        <ele>268</ele>
        <time>2019-02-13T14:20:46+01:00</time>
      </trkpt>
      <trkpt lat="43.93941" lon="1.71751">
        <ele>263</ele>
        <time>2019-02-13T14:21:19+01:00</time>
      </trkpt>
      <trkpt lat="43.93948" lon="1.7172">
        <ele>260</ele>
        <time>2019-02-13T14:21:35+01:00</time>
      </trkpt>
      <trkpt lat="43.93954" lon="1.71688">
        <ele>261</ele>
        <time>2019-02-13T14:21:48+01:00</time>
      </trkpt>
      <trkpt lat="43.93957" lon="1.71657">
        <ele>260</ele>
        <time>2019-02-13T14:22:01+01:00</time>
      </trkpt>
      <trkpt lat="43.93961" lon="1.71626">
        <ele>259</ele>
        <time>2019-02-13T14:22:15+01:00</time>
      </trkpt>
      <trkpt lat="43.93959" lon="1.71595">
        <ele>259</ele>
        <time>2019-02-13T14:22:29+01:00</time>
      </trkpt>
      <trkpt lat="43.9395" lon="1.71566">
        <ele>259</ele>
        <time>2019-02-13T14:22:42+01:00</time>
      </trkpt>
      <trkpt lat="43.93943" lon="1.71535">
        <ele>259</ele>
        <time>2019-02-13T14:22:55+01:00</time>
      </trkpt>
      <trkpt lat="43.9394" lon="1.71502">
        <ele>259</ele>
        <time>2019-02-13T14:23:11+01:00</time>
      </trkpt>
      <trkpt lat="43.93951" lon="1.71474">
        <ele>258</ele>
        <time>2019-02-13T14:23:25+01:00</time>
      </trkpt>
      <trkpt lat="43.93965" lon="1.71448">
        <ele>258</ele>
        <time>2019-02-13T14:23:39+01:00</time>
      </trkpt>
      <trkpt lat="43.93972" lon="1.71416">
        <ele>259</ele>
        <time>2019-02-13T14:23:55+01:00</time>
      </trkpt>
      <trkpt lat="43.93984" lon="1.71388">
        <ele>259</ele>
        <time>2019-02-13T14:24:10+01:00</time>
      </trkpt>
      <trkpt lat="43.93988" lon="1.71357">
        <ele>259</ele>
        <time>2019-02-13T14:24:24+01:00</time>
      </trkpt>
      <trkpt lat="43.93991" lon="1.71324">
        <ele>260</ele>
        <time>2019-02-13T14:24:40+01:00</time>
      </trkpt>
      <trkpt lat="43.93997" lon="1.71293">
        <ele>260</ele>
        <time>2019-02-13T14:24:56+01:00</time>
      </trkpt>
      <trkpt lat="43.9399" lon="1.71263">
        <ele>261</ele>
        <time>2019-02-13T14:25:13+01:00</time>
      </trkpt>
      <trkpt lat="43.93968" lon="1.71253">
        <ele>260</ele>
        <time>2019-02-13T14:29:08+01:00</time>
      </trkpt>
      <trkpt lat="43.93945" lon="1.71253">
        <ele>261</ele>
        <time>2019-02-13T14:29:27+01:00</time>
      </trkpt>
      <trkpt lat="43.93922" lon="1.71256">
        <ele>263</ele>
        <time>2019-02-13T14:29:47+01:00</time>
      </trkpt>
      <trkpt lat="43.939" lon="1.7126">
        <ele>264</ele>
        <time>2019-02-13T14:30:07+01:00</time>
      </trkpt>
      <trkpt lat="43.93877" lon="1.71262">
        <ele>263</ele>
        <time>2019-02-13T14:30:24+01:00</time>
      </trkpt>
      <trkpt lat="43.93855" lon="1.71259">
        <ele>263</ele>
        <time>2019-02-13T14:30:44+01:00</time>
      </trkpt>
      <trkpt lat="43.93832" lon="1.71256">
        <ele>264</ele>
        <time>2019-02-13T14:31:03+01:00</time>
      </trkpt>
      <trkpt lat="43.93808" lon="1.71255">
        <ele>264</ele>
        <time>2019-02-13T14:31:21+01:00</time>
      </trkpt>
      <trkpt lat="43.93786" lon="1.71263">
        <ele>263</ele>
        <time>2019-02-13T14:31:39+01:00</time>
      </trkpt>
      <trkpt lat="43.93763" lon="1.71269">
        <ele>262</ele>
        <time>2019-02-13T14:31:57+01:00</time>
      </trkpt>
      <trkpt lat="43.93741" lon="1.71277">
        <ele>261</ele>
        <time>2019-02-13T14:32:14+01:00</time>
      </trkpt>
      <trkpt lat="43.93717" lon="1.71277">
        <ele>261</ele>
        <time>2019-02-13T14:32:32+01:00</time>
      </trkpt>
      <trkpt lat="43.93694" lon="1.71274">
        <ele>261</ele>
        <time>2019-02-13T14:32:48+01:00</time>
      </trkpt>
      <trkpt lat="43.93671" lon="1.71274">
        <ele>261</ele>
        <time>2019-02-13T14:33:05+01:00</time>
      </trkpt>
      <trkpt lat="43.93648" lon="1.71277">
        <ele>260</ele>
        <time>2019-02-13T14:33:20+01:00</time>
      </trkpt>
      <trkpt lat="43.93627" lon="1.71287">
        <ele>259</ele>
        <time>2019-02-13T14:33:39+01:00</time>
      </trkpt>
      <trkpt lat="43.93604" lon="1.71297">
        <ele>257</ele>
        <time>2019-02-13T14:33:55+01:00</time>
      </trkpt>
      <trkpt lat="43.93583" lon="1.71308">
        <ele>254</ele>
        <time>2019-02-13T14:34:11+01:00</time>
      </trkpt>
      <trkpt lat="43.93562" lon="1.71324">
        <ele>251</ele>
        <time>2019-02-13T14:34:30+01:00</time>
      </trkpt>
      <trkpt lat="43.93543" lon="1.71341">
        <ele>248</ele>
        <time>2019-02-13T14:34:48+01:00</time>
      </trkpt>
      <trkpt lat="43.93524" lon="1.71359">
        <ele>245</ele>
        <time>2019-02-13T14:35:05+01:00</time>
      </trkpt>
      <trkpt lat="43.93503" lon="1.71376">
        <ele>243</ele>
        <time>2019-02-13T14:35:21+01:00</time>
      </trkpt>
      <trkpt lat="43.93484" lon="1.71391">
        <ele>239</ele>
        <time>2019-02-13T14:35:39+01:00</time>
      </trkpt>
      <trkpt lat="43.93463" lon="1.71405">
        <ele>236</ele>
        <time>2019-02-13T14:35:55+01:00</time>
      </trkpt>
      <trkpt lat="43.93444" lon="1.71425">
        <ele>233</ele>
        <time>2019-02-13T14:36:15+01:00</time>
      </trkpt>
      <trkpt lat="43.93424" lon="1.71438">
        <ele>230</ele>
        <time>2019-02-13T14:36:28+01:00</time>
      </trkpt>
      <trkpt lat="43.93402" lon="1.71449">
        <ele>229</ele>
        <time>2019-02-13T14:36:43+01:00</time>
      </trkpt>
      <trkpt lat="43.93379" lon="1.71451">
        <ele>227</ele>
        <time>2019-02-13T14:37:01+01:00</time>
      </trkpt>
      <trkpt lat="43.93356" lon="1.71461">
        <ele>226</ele>
        <time>2019-02-13T14:37:20+01:00</time>
      </trkpt>
      <trkpt lat="43.93335" lon="1.71473">
        <ele>224</ele>
        <time>2019-02-13T14:37:36+01:00</time>
      </trkpt>
      <trkpt lat="43.93321" lon="1.715">
        <ele>223</ele>
        <time>2019-02-13T14:37:54+01:00</time>
      </trkpt>
      <trkpt lat="43.93306" lon="1.71525">
        <ele>220</ele>
        <time>2019-02-13T14:38:11+01:00</time>
      </trkpt>
      <trkpt lat="43.93291" lon="1.7155">
        <ele>218</ele>
        <time>2019-02-13T14:38:27+01:00</time>
      </trkpt>
      <trkpt lat="43.93275" lon="1.71574">
        <ele>217</ele>
        <time>2019-02-13T14:38:46+01:00</time>
      </trkpt>
      <trkpt lat="43.93255" lon="1.71591">
        <ele>216</ele>
        <time>2019-02-13T14:39:03+01:00</time>
      </trkpt>
      <trkpt lat="43.93235" lon="1.71575">
        <ele>213</ele>
        <time>2019-02-13T14:39:20+01:00</time>
      </trkpt>
      <trkpt lat="43.93214" lon="1.71561">
        <ele>209</ele>
        <time>2019-02-13T14:39:36+01:00</time>
      </trkpt>
      <trkpt lat="43.93192" lon="1.71551">
        <ele>206</ele>
        <time>2019-02-13T14:39:53+01:00</time>
      </trkpt>
      <trkpt lat="43.93213" lon="1.71565">
        <ele>209</ele>
        <time>2019-02-13T14:41:05+01:00</time>
      </trkpt>
      <trkpt lat="43.93234" lon="1.71577">
        <ele>213</ele>
        <time>2019-02-13T14:41:27+01:00</time>
      </trkpt>
      <trkpt lat="43.93257" lon="1.71587">
        <ele>216</ele>
        <time>2019-02-13T14:42:08+01:00</time>
      </trkpt>
      <trkpt lat="43.93279" lon="1.71579">
        <ele>217</ele>
        <time>2019-02-13T14:44:43+01:00</time>
      </trkpt>
      <trkpt lat="43.93298" lon="1.7156">
        <ele>218</ele>
        <time>2019-02-13T14:45:00+01:00</time>
      </trkpt>
      <trkpt lat="43.93316" lon="1.7154">
        <ele>219</ele>
        <time>2019-02-13T14:45:15+01:00</time>
      </trkpt>
      <trkpt lat="43.93327" lon="1.71513">
        <ele>221</ele>
        <time>2019-02-13T14:45:29+01:00</time>
      </trkpt>
      <trkpt lat="43.9334" lon="1.71486">
        <ele>224</ele>
        <time>2019-02-13T14:45:49+01:00</time>
      </trkpt>
      <trkpt lat="43.93358" lon="1.71468">
        <ele>226</ele>
        <time>2019-02-13T14:46:12+01:00</time>
      </trkpt>
      <trkpt lat="43.93381" lon="1.71461">
        <ele>226</ele>
        <time>2019-02-13T14:46:31+01:00</time>
      </trkpt>
      <trkpt lat="43.93405" lon="1.71457">
        <ele>228</ele>
        <time>2019-02-13T14:46:47+01:00</time>
      </trkpt>
      <trkpt lat="43.93426" lon="1.71448">
        <ele>230</ele>
        <time>2019-02-13T14:47:06+01:00</time>
      </trkpt>
      <trkpt lat="43.93404" lon="1.71452">
        <ele>229</ele>
        <time>2019-02-13T14:58:10+01:00</time>
      </trkpt>
      <trkpt lat="43.93381" lon="1.71453">
        <ele>227</ele>
        <time>2019-02-13T14:58:32+01:00</time>
      </trkpt>
      <trkpt lat="43.93358" lon="1.71457">
        <ele>226</ele>
        <time>2019-02-13T14:58:50+01:00</time>
      </trkpt>
      <trkpt lat="43.93337" lon="1.71471">
        <ele>225</ele>
        <time>2019-02-13T14:59:05+01:00</time>
      </trkpt>
      <trkpt lat="43.93324" lon="1.71496">
        <ele>224</ele>
        <time>2019-02-13T14:59:20+01:00</time>
      </trkpt>
      <trkpt lat="43.93311" lon="1.71522">
        <ele>222</ele>
        <time>2019-02-13T14:59:36+01:00</time>
      </trkpt>
      <trkpt lat="43.93298" lon="1.71549">
        <ele>219</ele>
        <time>2019-02-13T14:59:55+01:00</time>
      </trkpt>
      <trkpt lat="43.9328" lon="1.7157">
        <ele>218</ele>
        <time>2019-02-13T15:00:10+01:00</time>
      </trkpt>
      <trkpt lat="43.93262" lon="1.7159">
        <ele>217</ele>
        <time>2019-02-13T15:00:54+01:00</time>
      </trkpt>
      <trkpt lat="43.93241" lon="1.71578">
        <ele>214</ele>
        <time>2019-02-13T15:01:27+01:00</time>
      </trkpt>
      <trkpt lat="43.9322" lon="1.71564">
        <ele>210</ele>
        <time>2019-02-13T15:01:46+01:00</time>
      </trkpt>
      <trkpt lat="43.932" lon="1.71548">
        <ele>208</ele>
        <time>2019-02-13T15:02:05+01:00</time>
      </trkpt>
      <trkpt lat="43.93178" lon="1.71543">
        <ele>205</ele>
        <time>2019-02-13T15:02:26+01:00</time>
      </trkpt>
      <trkpt lat="43.93156" lon="1.71534">
        <ele>204</ele>
        <time>2019-02-13T15:02:42+01:00</time>
      </trkpt>
      <trkpt lat="43.93137" lon="1.71517">
        <ele>202</ele>
        <time>2019-02-13T15:03:00+01:00</time>
      </trkpt>
      <trkpt lat="43.93114" lon="1.71506">
        <ele>201</ele>
        <time>2019-02-13T15:03:17+01:00</time>
      </trkpt>
      <trkpt lat="43.93092" lon="1.71496">
        <ele>199</ele>
        <time>2019-02-13T15:03:33+01:00</time>
      </trkpt>
      <trkpt lat="43.9307" lon="1.71488">
        <ele>197</ele>
        <time>2019-02-13T15:03:49+01:00</time>
      </trkpt>
      <trkpt lat="43.93048" lon="1.71479">
        <ele>196</ele>
        <time>2019-02-13T15:04:07+01:00</time>
      </trkpt>
      <trkpt lat="43.93026" lon="1.71468">
        <ele>194</ele>
        <time>2019-02-13T15:04:24+01:00</time>
      </trkpt>
      <trkpt lat="43.93004" lon="1.71457">
        <ele>192</ele>
        <time>2019-02-13T15:04:41+01:00</time>
      </trkpt>
      <trkpt lat="43.92984" lon="1.71443">
        <ele>191</ele>
        <time>2019-02-13T15:04:58+01:00</time>
      </trkpt>
      <trkpt lat="43.92964" lon="1.71426">
        <ele>189</ele>
        <time>2019-02-13T15:05:15+01:00</time>
      </trkpt>
      <trkpt lat="43.92945" lon="1.7141">
        <ele>188</ele>
        <time>2019-02-13T15:05:31+01:00</time>
      </trkpt>
      <trkpt lat="43.92925" lon="1.71394">
        <ele>188</ele>
        <time>2019-02-13T15:05:49+01:00</time>
      </trkpt>
      <trkpt lat="43.92904" lon="1.7138">
        <ele>188</ele>
        <time>2019-02-13T15:06:16+01:00</time>
      </trkpt>
      <trkpt lat="43.92882" lon="1.71373">
        <ele>188</ele>
        <time>2019-02-13T15:07:12+01:00</time>
      </trkpt>
      <trkpt lat="43.92859" lon="1.71373">
        <ele>188</ele>
        <time>2019-02-13T15:07:35+01:00</time>
      </trkpt>
      <trkpt lat="43.92836" lon="1.71371">
        <ele>188</ele>
        <time>2019-02-13T15:07:54+01:00</time>
      </trkpt>
      <trkpt lat="43.92813" lon="1.71367">
        <ele>189</ele>
        <time>2019-02-13T15:08:13+01:00</time>
      </trkpt>
      <trkpt lat="43.9279" lon="1.7137">
        <ele>189</ele>
        <time>2019-02-13T15:08:32+01:00</time>
      </trkpt>
      <trkpt lat="43.92768" lon="1.71366">
        <ele>189</ele>
        <time>2019-02-13T15:08:58+01:00</time>
      </trkpt>
      <trkpt lat="43.92746" lon="1.71352">
        <ele>190</ele>
        <time>2019-02-13T15:09:21+01:00</time>
      </trkpt>
      <trkpt lat="43.92725" lon="1.71338">
        <ele>192</ele>
        <time>2019-02-13T15:09:40+01:00</time>
      </trkpt>
      <trkpt lat="43.92703" lon="1.71328">
        <ele>192</ele>
        <time>2019-02-13T15:10:17+01:00</time>
      </trkpt>
      <trkpt lat="43.92681" lon="1.71318">
        <ele>189</ele>
        <time>2019-02-13T15:10:34+01:00</time>
      </trkpt>
      <trkpt lat="43.92661" lon="1.71302">
        <ele>187</ele>
        <time>2019-02-13T15:10:52+01:00</time>
      </trkpt>
      <trkpt lat="43.92645" lon="1.71326">
        <ele>183</ele>
        <time>2019-02-13T15:11:14+01:00</time>
      </trkpt>
      <trkpt lat="43.92633" lon="1.71353">
        <ele>181</ele>
        <time>2019-02-13T15:11:30+01:00</time>
      </trkpt>
      <trkpt lat="43.92622" lon="1.71381">
        <ele>179</ele>
        <time>2019-02-13T15:11:48+01:00</time>
      </trkpt>
      <trkpt lat="43.92607" lon="1.71405">
        <ele>179</ele>
        <time>2019-02-13T15:12:06+01:00</time>
      </trkpt>
      <trkpt lat="43.92592" lon="1.71429">
        <ele>179</ele>
        <time>2019-02-13T15:12:23+01:00</time>
      </trkpt>
      <trkpt lat="43.9258" lon="1.71457">
        <ele>179</ele>
        <time>2019-02-13T15:12:41+01:00</time>
      </trkpt>
      <trkpt lat="43.92567" lon="1.71484">
        <ele>180</ele>
        <time>2019-02-13T15:13:00+01:00</time>
      </trkpt>
      <trkpt lat="43.92555" lon="1.71511">
        <ele>181</ele>
        <time>2019-02-13T15:13:19+01:00</time>
      </trkpt>
      <trkpt lat="43.92542" lon="1.71536">
        <ele>182</ele>
        <time>2019-02-13T15:13:38+01:00</time>
      </trkpt>
      <trkpt lat="43.92525" lon="1.71558">
        <ele>184</ele>
        <time>2019-02-13T15:13:56+01:00</time>
      </trkpt>
      <trkpt lat="43.92504" lon="1.71574">
        <ele>185</ele>
        <time>2019-02-13T15:14:13+01:00</time>
      </trkpt>
      <trkpt lat="43.92485" lon="1.71591">
        <ele>188</ele>
        <time>2019-02-13T15:14:31+01:00</time>
      </trkpt>
      <trkpt lat="43.92465" lon="1.71607">
        <ele>191</ele>
        <time>2019-02-13T15:14:49+01:00</time>
      </trkpt>
      <trkpt lat="43.92457" lon="1.71578">
        <ele>191</ele>
        <time>2019-02-13T15:18:54+01:00</time>
      </trkpt>
      <trkpt lat="43.92463" lon="1.71548">
        <ele>190</ele>
        <time>2019-02-13T15:19:11+01:00</time>
      </trkpt>
      <trkpt lat="43.92468" lon="1.71516">
        <ele>189</ele>
        <time>2019-02-13T15:19:29+01:00</time>
      </trkpt>
      <trkpt lat="43.92476" lon="1.71485">
        <ele>188</ele>
        <time>2019-02-13T15:19:47+01:00</time>
      </trkpt>
      <trkpt lat="43.92482" lon="1.71454">
        <ele>188</ele>
        <time>2019-02-13T15:20:06+01:00</time>
      </trkpt>
      <trkpt lat="43.92486" lon="1.71423">
        <ele>188</ele>
        <time>2019-02-13T15:20:24+01:00</time>
      </trkpt>
      <trkpt lat="43.92473" lon="1.71396">
        <ele>186</ele>
        <time>2019-02-13T15:20:45+01:00</time>
      </trkpt>
      <trkpt lat="43.92455" lon="1.71375">
        <ele>183</ele>
        <time>2019-02-13T15:21:01+01:00</time>
      </trkpt>
      <trkpt lat="43.92436" lon="1.71356">
        <ele>181</ele>
        <time>2019-02-13T15:21:18+01:00</time>
      </trkpt>
      <trkpt lat="43.92417" lon="1.71336">
        <ele>179</ele>
        <time>2019-02-13T15:21:35+01:00</time>
      </trkpt>
      <trkpt lat="43.924" lon="1.71315">
        <ele>176</ele>
        <time>2019-02-13T15:21:54+01:00</time>
      </trkpt>
      <trkpt lat="43.92386" lon="1.7129">
        <ele>174</ele>
        <time>2019-02-13T15:22:12+01:00</time>
      </trkpt>
      <trkpt lat="43.92377" lon="1.71259">
        <ele>171</ele>
        <time>2019-02-13T15:22:30+01:00</time>
      </trkpt>
      <trkpt lat="43.92368" lon="1.7123">
        <ele>170</ele>
        <time>2019-02-13T15:22:46+01:00</time>
      </trkpt>
      <trkpt lat="43.92357" lon="1.71201">
        <ele>170</ele>
        <time>2019-02-13T15:23:02+01:00</time>
      </trkpt>
      <trkpt lat="43.92343" lon="1.71177">
        <ele>174</ele>
        <time>2019-02-13T15:23:17+01:00</time>
      </trkpt>
      <trkpt lat="43.92323" lon="1.7116">
        <ele>173</ele>
        <time>2019-02-13T15:23:33+01:00</time>
      </trkpt>
      <trkpt lat="43.92301" lon="1.7115">
        <ele>172</ele>
        <time>2019-02-13T15:23:48+01:00</time>
      </trkpt>
      <trkpt lat="43.92278" lon="1.71138">
        <ele>171</ele>
        <time>2019-02-13T15:24:04+01:00</time>
      </trkpt>
      <trkpt lat="43.92257" lon="1.71126">
        <ele>171</ele>
        <time>2019-02-13T15:24:20+01:00</time>
      </trkpt>
      <trkpt lat="43.92235" lon="1.71117">
        <ele>170</ele>
        <time>2019-02-13T15:24:36+01:00</time>
      </trkpt>
      <trkpt lat="43.92213" lon="1.71105">
        <ele>170</ele>
        <time>2019-02-13T15:24:54+01:00</time>
      </trkpt>
      <trkpt lat="43.92191" lon="1.71094">
        <ele>170</ele>
        <time>2019-02-13T15:25:14+01:00</time>
      </trkpt>
      <trkpt lat="43.92172" lon="1.71076">
        <ele>170</ele>
        <time>2019-02-13T15:25:30+01:00</time>
      </trkpt>
      <trkpt lat="43.92158" lon="1.71049">
        <ele>170</ele>
        <time>2019-02-13T15:25:46+01:00</time>
      </trkpt>
      <trkpt lat="43.92138" lon="1.71032">
        <ele>169</ele>
        <time>2019-02-13T15:26:02+01:00</time>
      </trkpt>
      <trkpt lat="43.92115" lon="1.71029">
        <ele>169</ele>
        <time>2019-02-13T15:26:17+01:00</time>
      </trkpt>
      <trkpt lat="43.92092" lon="1.7103">
        <ele>168</ele>
        <time>2019-02-13T15:26:31+01:00</time>
      </trkpt>
      <trkpt lat="43.92069" lon="1.71032">
        <ele>168</ele>
        <time>2019-02-13T15:26:48+01:00</time>
      </trkpt>
      <trkpt lat="43.92045" lon="1.71032">
        <ele>167</ele>
        <time>2019-02-13T15:27:03+01:00</time>
      </trkpt>
      <trkpt lat="43.92022" lon="1.71035">
        <ele>167</ele>
        <time>2019-02-13T15:27:19+01:00</time>
      </trkpt>
      <trkpt lat="43.91999" lon="1.71039">
        <ele>166</ele>
        <time>2019-02-13T15:27:36+01:00</time>
      </trkpt>
      <trkpt lat="43.91976" lon="1.71039">
        <ele>166</ele>
        <time>2019-02-13T15:27:52+01:00</time>
      </trkpt>
      <trkpt lat="43.91952" lon="1.7104">
        <ele>166</ele>
        <time>2019-02-13T15:28:09+01:00</time>
      </trkpt>
      <trkpt lat="43.9193" lon="1.71043">
        <ele>165</ele>
        <time>2019-02-13T15:28:27+01:00</time>
      </trkpt>
      <trkpt lat="43.91907" lon="1.71033">
        <ele>165</ele>
        <time>2019-02-13T15:28:46+01:00</time>
      </trkpt>
      <trkpt lat="43.91885" lon="1.71026">
        <ele>164</ele>
        <time>2019-02-13T15:29:03+01:00</time>
      </trkpt>
      <trkpt lat="43.91863" lon="1.71016">
        <ele>164</ele>
        <time>2019-02-13T15:29:18+01:00</time>
      </trkpt>
      <trkpt lat="43.9184" lon="1.71004">
        <ele>164</ele>
        <time>2019-02-13T15:29:34+01:00</time>
      </trkpt>
      <trkpt lat="43.9182" lon="1.70991">
        <ele>164</ele>
        <time>2019-02-13T15:29:48+01:00</time>
      </trkpt>
      <trkpt lat="43.91799" lon="1.70975">
        <ele>164</ele>
        <time>2019-02-13T15:30:05+01:00</time>
      </trkpt>
      <trkpt lat="43.91777" lon="1.7096">
        <ele>164</ele>
        <time>2019-02-13T15:30:21+01:00</time>
      </trkpt>
      <trkpt lat="43.91757" lon="1.70945">
        <ele>164</ele>
        <time>2019-02-13T15:30:35+01:00</time>
      </trkpt>
      <trkpt lat="43.91736" lon="1.70934">
        <ele>164</ele>
        <time>2019-02-13T15:30:52+01:00</time>
      </trkpt>
      <trkpt lat="43.91714" lon="1.70927">
        <ele>164</ele>
        <time>2019-02-13T15:31:09+01:00</time>
      </trkpt>
      <trkpt lat="43.91692" lon="1.70918">
        <ele>163</ele>
        <time>2019-02-13T15:31:25+01:00</time>
      </trkpt>
      <trkpt lat="43.9167" lon="1.7091">
        <ele>163</ele>
        <time>2019-02-13T15:31:40+01:00</time>
      </trkpt>
      <trkpt lat="43.91648" lon="1.709">
        <ele>161</ele>
        <time>2019-02-13T15:31:56+01:00</time>
      </trkpt>
      <trkpt lat="43.91625" lon="1.7089">
        <ele>161</ele>
        <time>2019-02-13T15:32:12+01:00</time>
      </trkpt>
      <trkpt lat="43.91603" lon="1.70882">
        <ele>161</ele>
        <time>2019-02-13T15:32:28+01:00</time>
      </trkpt>
      <trkpt lat="43.91581" lon="1.7087">
        <ele>160</ele>
        <time>2019-02-13T15:32:42+01:00</time>
      </trkpt>
      <trkpt lat="43.91559" lon="1.70862">
        <ele>160</ele>
        <time>2019-02-13T15:32:58+01:00</time>
      </trkpt>
      <trkpt lat="43.91538" lon="1.70846">
        <ele>159</ele>
        <time>2019-02-13T15:33:16+01:00</time>
      </trkpt>
      <trkpt lat="43.91517" lon="1.70833">
        <ele>160</ele>
        <time>2019-02-13T15:33:33+01:00</time>
      </trkpt>
      <trkpt lat="43.91497" lon="1.70816">
        <ele>159</ele>
        <time>2019-02-13T15:33:52+01:00</time>
      </trkpt>
      <trkpt lat="43.91498" lon="1.70785">
        <ele>158</ele>
        <time>2019-02-13T15:36:58+01:00</time>
      </trkpt>
      <trkpt lat="43.91488" lon="1.70754">
        <ele>158</ele>
        <time>2019-02-13T15:37:16+01:00</time>
      </trkpt>
      <trkpt lat="43.91484" lon="1.70723">
        <ele>158</ele>
        <time>2019-02-13T15:37:33+01:00</time>
      </trkpt>
      <trkpt lat="43.91486" lon="1.70691">
        <ele>158</ele>
        <time>2019-02-13T15:37:49+01:00</time>
      </trkpt>
      <trkpt lat="43.9149" lon="1.70659">
        <ele>158</ele>
        <time>2019-02-13T15:38:06+01:00</time>
      </trkpt>
      <trkpt lat="43.91497" lon="1.70629">
        <ele>158</ele>
        <time>2019-02-13T15:38:23+01:00</time>
      </trkpt>
      <trkpt lat="43.91503" lon="1.70598">
        <ele>158</ele>
        <time>2019-02-13T15:38:39+01:00</time>
      </trkpt>
      <trkpt lat="43.91507" lon="1.70567">
        <ele>158</ele>
        <time>2019-02-13T15:38:55+01:00</time>
      </trkpt>
      <trkpt lat="43.9151" lon="1.70535">
        <ele>158</ele>
        <time>2019-02-13T15:39:11+01:00</time>
      </trkpt>
      <trkpt lat="43.91509" lon="1.70503">
        <ele>158</ele>
        <time>2019-02-13T15:39:28+01:00</time>
      </trkpt>
      <trkpt lat="43.91511" lon="1.70472">
        <ele>158</ele>
        <time>2019-02-13T15:39:44+01:00</time>
      </trkpt>
      <trkpt lat="43.91515" lon="1.70441">
        <ele>158</ele>
        <time>2019-02-13T15:40:00+01:00</time>
      </trkpt>
      <trkpt lat="43.91529" lon="1.70416">
        <ele>159</ele>
        <time>2019-02-13T15:40:18+01:00</time>
      </trkpt>
      <trkpt lat="43.91545" lon="1.70393">
        <ele>159</ele>
        <time>2019-02-13T15:40:37+01:00</time>
      </trkpt>
      <trkpt lat="43.91549" lon="1.70361">
        <ele>158</ele>
        <time>2019-02-13T15:40:54+01:00</time>
      </trkpt>
      <trkpt lat="43.91556" lon="1.70331">
        <ele>158</ele>
        <time>2019-02-13T15:41:10+01:00</time>
      </trkpt>
      <trkpt lat="43.91564" lon="1.70301">
        <ele>157</ele>
        <time>2019-02-13T15:41:28+01:00</time>
      </trkpt>
      <trkpt lat="43.91573" lon="1.70272">
        <ele>157</ele>
        <time>2019-02-13T15:41:45+01:00</time>
      </trkpt>
      <trkpt lat="43.91581" lon="1.70241">
        <ele>157</ele>
        <time>2019-02-13T15:42:03+01:00</time>
      </trkpt>
      <trkpt lat="43.91589" lon="1.70211">
        <ele>156</ele>
        <time>2019-02-13T15:42:21+01:00</time>
      </trkpt>
      <trkpt lat="43.91595" lon="1.70181">
        <ele>157</ele>
        <time>2019-02-13T15:42:39+01:00</time>
      </trkpt>
      <trkpt lat="43.91602" lon="1.70151">
        <ele>157</ele>
        <time>2019-02-13T15:42:56+01:00</time>
      </trkpt>
      <trkpt lat="43.91607" lon="1.70121">
        <ele>156</ele>
        <time>2019-02-13T15:43:12+01:00</time>
      </trkpt>
      <trkpt lat="43.91611" lon="1.70088">
        <ele>155</ele>
        <time>2019-02-13T15:43:29+01:00</time>
      </trkpt>
      <trkpt lat="43.91616" lon="1.70057">
        <ele>154</ele>
        <time>2019-02-13T15:43:45+01:00</time>
      </trkpt>
      <trkpt lat="43.91621" lon="1.70026">
        <ele>154</ele>
        <time>2019-02-13T15:44:01+01:00</time>
      </trkpt>
      <trkpt lat="43.91629" lon="1.69995">
        <ele>154</ele>
        <time>2019-02-13T15:44:20+01:00</time>
      </trkpt>
      <trkpt lat="43.91639" lon="1.69967">
        <ele>154</ele>
        <time>2019-02-13T15:44:41+01:00</time>
      </trkpt>
      <trkpt lat="43.91646" lon="1.69937">
        <ele>154</ele>
        <time>2019-02-13T15:44:58+01:00</time>
      </trkpt>
      <trkpt lat="43.91653" lon="1.69907">
        <ele>154</ele>
        <time>2019-02-13T15:45:14+01:00</time>
      </trkpt>
      <trkpt lat="43.91656" lon="1.69875">
        <ele>154</ele>
        <time>2019-02-13T15:45:31+01:00</time>
      </trkpt>
      <trkpt lat="43.91661" lon="1.69843">
        <ele>154</ele>
        <time>2019-02-13T15:45:49+01:00</time>
      </trkpt>
      <trkpt lat="43.91665" lon="1.69812">
        <ele>154</ele>
        <time>2019-02-13T15:46:06+01:00</time>
      </trkpt>
      <trkpt lat="43.91669" lon="1.6978">
        <ele>154</ele>
        <time>2019-02-13T15:46:23+01:00</time>
      </trkpt>
      <trkpt lat="43.91673" lon="1.69749">
        <ele>154</ele>
        <time>2019-02-13T15:46:41+01:00</time>
      </trkpt>
      <trkpt lat="43.91676" lon="1.69717">
        <ele>154</ele>
        <time>2019-02-13T15:46:58+01:00</time>
      </trkpt>
      <trkpt lat="43.91682" lon="1.69686">
        <ele>154</ele>
        <time>2019-02-13T15:47:15+01:00</time>
      </trkpt>
      <trkpt lat="43.91691" lon="1.69657">
        <ele>154</ele>
        <time>2019-02-13T15:47:31+01:00</time>
      </trkpt>
      <trkpt lat="43.917" lon="1.69628">
        <ele>154</ele>
        <time>2019-02-13T15:47:47+01:00</time>
      </trkpt>
      <trkpt lat="43.91708" lon="1.69598">
        <ele>154</ele>
        <time>2019-02-13T15:48:03+01:00</time>
      </trkpt>
      <trkpt lat="43.91714" lon="1.69568">
        <ele>154</ele>
        <time>2019-02-13T15:48:17+01:00</time>
      </trkpt>
      <trkpt lat="43.91721" lon="1.69538">
        <ele>154</ele>
        <time>2019-02-13T15:48:32+01:00</time>
      </trkpt>
      <trkpt lat="43.91729" lon="1.69507">
        <ele>154</ele>
        <time>2019-02-13T15:48:50+01:00</time>
      </trkpt>
      <trkpt lat="43.91738" lon="1.69478">
        <ele>154</ele>
        <time>2019-02-13T15:49:07+01:00</time>
      </trkpt>
      <trkpt lat="43.91745" lon="1.69448">
        <ele>154</ele>
        <time>2019-02-13T15:49:27+01:00</time>
      </trkpt>
      <trkpt lat="43.91751" lon="1.69417">
        <ele>154</ele>
        <time>2019-02-13T15:49:44+01:00</time>
      </trkpt>
      <trkpt lat="43.91756" lon="1.69386">
        <ele>155</ele>
        <time>2019-02-13T15:50:10+01:00</time>
      </trkpt>
      <trkpt lat="43.9174" lon="1.69364">
        <ele>155</ele>
        <time>2019-02-13T15:50:25+01:00</time>
      </trkpt>
      <trkpt lat="43.91725" lon="1.69339">
        <ele>155</ele>
        <time>2019-02-13T15:50:40+01:00</time>
      </trkpt>
      <trkpt lat="43.91705" lon="1.69324">
        <ele>155</ele>
        <time>2019-02-13T15:50:55+01:00</time>
      </trkpt>
      <trkpt lat="43.91682" lon="1.69312">
        <ele>155</ele>
        <time>2019-02-13T15:51:10+01:00</time>
      </trkpt>
      <trkpt lat="43.9166" lon="1.693">
        <ele>154</ele>
        <time>2019-02-13T15:51:25+01:00</time>
      </trkpt>
    </trkseg>
  </trk>
</gpx>